<?xml version="1.0" encoding="UTF-8" standalone="no" ?>
<gpx xmlns="http://www.topografix.com/GPX/1/1" xmlns:xsi="http://www.w3.org/2001/XMLSchema-instance" xsi:schemaLocation="http://www.topografix.com/GPX/1/1 http://www.topografix.com/GPX/1/1/gpx.xsd" version="1.1" creator="VisuGPX - https://www.visugpx.com">
  <metadata>
    <name>La Chapelle-de-Guinchay Cyclisme</name>
    <desc><![CDATA[Col de la Croix Rosier au départ de MARCHAMPT]]></desc>
  </metadata>
  <trk>
    <name><![CDATA[La Chapelle-de-Guinchay Cyclisme]]></name>
    <trkseg>
      <trkpt lat="46.11265" lon="4.57451">
        <ele>380.79998779297</ele>
        <time>2020-09-18T13:45:56.000Z</time>
      </trkpt>
      <trkpt lat="46.11266" lon="4.57441">
        <ele>380.79998779297</ele>
        <time>2020-09-18T13:45:57.000Z</time>
      </trkpt>
      <trkpt lat="46.11268" lon="4.57423">
        <ele>381.20001220703</ele>
        <time>2020-09-18T13:45:59.000Z</time>
      </trkpt>
      <trkpt lat="46.11271" lon="4.57404">
        <ele>381.60000610352</ele>
        <time>2020-09-18T13:46:01.000Z</time>
      </trkpt>
      <trkpt lat="46.11273" lon="4.57396">
        <ele>381.79998779297</ele>
        <time>2020-09-18T13:46:02.000Z</time>
      </trkpt>
      <trkpt lat="46.11286" lon="4.57359">
        <ele>384.20001220703</ele>
        <time>2020-09-18T13:46:07.000Z</time>
      </trkpt>
      <trkpt lat="46.11296" lon="4.57328">
        <ele>385.60000610352</ele>
        <time>2020-09-18T13:46:12.000Z</time>
      </trkpt>
      <trkpt lat="46.113" lon="4.57317">
        <ele>386.20001220703</ele>
        <time>2020-09-18T13:46:14.000Z</time>
      </trkpt>
      <trkpt lat="46.11305" lon="4.573">
        <ele>386.60000610352</ele>
        <time>2020-09-18T13:46:17.000Z</time>
      </trkpt>
      <trkpt lat="46.11317" lon="4.57267">
        <ele>386.39999389648</ele>
        <time>2020-09-18T13:46:23.000Z</time>
      </trkpt>
      <trkpt lat="46.11319" lon="4.57262">
        <ele>386.20001220703</ele>
        <time>2020-09-18T13:46:24.000Z</time>
      </trkpt>
      <trkpt lat="46.11328" lon="4.57234">
        <ele>385.20001220703</ele>
        <time>2020-09-18T13:46:29.000Z</time>
      </trkpt>
      <trkpt lat="46.1133" lon="4.57228">
        <ele>385</ele>
        <time>2020-09-18T13:46:30.000Z</time>
      </trkpt>
      <trkpt lat="46.11336" lon="4.57213">
        <ele>385</ele>
        <time>2020-09-18T13:46:33.000Z</time>
      </trkpt>
      <trkpt lat="46.11347" lon="4.57188">
        <ele>385.39999389648</ele>
        <time>2020-09-18T13:46:38.000Z</time>
      </trkpt>
      <trkpt lat="46.11351" lon="4.57179">
        <ele>385.39999389648</ele>
        <time>2020-09-18T13:46:40.000Z</time>
      </trkpt>
      <trkpt lat="46.11366" lon="4.57152">
        <ele>384.60000610352</ele>
        <time>2020-09-18T13:46:46.000Z</time>
      </trkpt>
      <trkpt lat="46.11376" lon="4.57138">
        <ele>383.60000610352</ele>
        <time>2020-09-18T13:46:50.000Z</time>
      </trkpt>
      <trkpt lat="46.11386" lon="4.57128">
        <ele>383.39999389648</ele>
        <time>2020-09-18T13:46:53.000Z</time>
      </trkpt>
      <trkpt lat="46.11396" lon="4.57121">
        <ele>383.79998779297</ele>
        <time>2020-09-18T13:46:56.000Z</time>
      </trkpt>
      <trkpt lat="46.11406" lon="4.57114">
        <ele>384</ele>
        <time>2020-09-18T13:46:59.000Z</time>
      </trkpt>
      <trkpt lat="46.11414" lon="4.57111">
        <ele>384.60000610352</ele>
        <time>2020-09-18T13:47:01.000Z</time>
      </trkpt>
      <trkpt lat="46.11424" lon="4.57107">
        <ele>385.20001220703</ele>
        <time>2020-09-18T13:47:04.000Z</time>
      </trkpt>
      <trkpt lat="46.11435" lon="4.57105">
        <ele>386.20001220703</ele>
        <time>2020-09-18T13:47:07.000Z</time>
      </trkpt>
      <trkpt lat="46.11446" lon="4.57104">
        <ele>387.39999389648</ele>
        <time>2020-09-18T13:47:10.000Z</time>
      </trkpt>
      <trkpt lat="46.11449" lon="4.57104">
        <ele>387.60000610352</ele>
        <time>2020-09-18T13:47:11.000Z</time>
      </trkpt>
      <trkpt lat="46.1146" lon="4.57105">
        <ele>388.79998779297</ele>
        <time>2020-09-18T13:47:14.000Z</time>
      </trkpt>
      <trkpt lat="46.11477" lon="4.57106">
        <ele>391.20001220703</ele>
        <time>2020-09-18T13:47:19.000Z</time>
      </trkpt>
      <trkpt lat="46.11484" lon="4.57107">
        <ele>392.39999389648</ele>
        <time>2020-09-18T13:47:21.000Z</time>
      </trkpt>
      <trkpt lat="46.11497" lon="4.5711">
        <ele>394.79998779297</ele>
        <time>2020-09-18T13:47:25.000Z</time>
      </trkpt>
      <trkpt lat="46.11501" lon="4.57111">
        <ele>395.20001220703</ele>
        <time>2020-09-18T13:47:26.000Z</time>
      </trkpt>
      <trkpt lat="46.11515" lon="4.57113">
        <ele>397.60000610352</ele>
        <time>2020-09-18T13:47:30.000Z</time>
      </trkpt>
      <trkpt lat="46.11526" lon="4.57111">
        <ele>399.20001220703</ele>
        <time>2020-09-18T13:47:33.000Z</time>
      </trkpt>
      <trkpt lat="46.11529" lon="4.5711">
        <ele>399.60000610352</ele>
        <time>2020-09-18T13:47:34.000Z</time>
      </trkpt>
      <trkpt lat="46.1154" lon="4.57098">
        <ele>400.79998779297</ele>
        <time>2020-09-18T13:47:38.000Z</time>
      </trkpt>
      <trkpt lat="46.11542" lon="4.57093">
        <ele>401.20001220703</ele>
        <time>2020-09-18T13:47:39.000Z</time>
      </trkpt>
      <trkpt lat="46.11547" lon="4.57079">
        <ele>402.60000610352</ele>
        <time>2020-09-18T13:47:42.000Z</time>
      </trkpt>
      <trkpt lat="46.11548" lon="4.57074">
        <ele>403</ele>
        <time>2020-09-18T13:47:43.000Z</time>
      </trkpt>
      <trkpt lat="46.11551" lon="4.57037">
        <ele>404.60000610352</ele>
        <time>2020-09-18T13:47:50.000Z</time>
      </trkpt>
      <trkpt lat="46.11554" lon="4.57002">
        <ele>405</ele>
        <time>2020-09-18T13:47:57.000Z</time>
      </trkpt>
      <trkpt lat="46.11555" lon="4.56998">
        <ele>405.20001220703</ele>
        <time>2020-09-18T13:47:58.000Z</time>
      </trkpt>
      <trkpt lat="46.11558" lon="4.56974">
        <ele>405.60000610352</ele>
        <time>2020-09-18T13:48:03.000Z</time>
      </trkpt>
      <trkpt lat="46.11558" lon="4.56969">
        <ele>405.60000610352</ele>
        <time>2020-09-18T13:48:04.000Z</time>
      </trkpt>
      <trkpt lat="46.11561" lon="4.56942">
        <ele>406</ele>
        <time>2020-09-18T13:48:10.000Z</time>
      </trkpt>
      <trkpt lat="46.11563" lon="4.56927">
        <ele>405.79998779297</ele>
        <time>2020-09-18T13:48:13.000Z</time>
      </trkpt>
      <trkpt lat="46.11564" lon="4.56918">
        <ele>405.79998779297</ele>
        <time>2020-09-18T13:48:15.000Z</time>
      </trkpt>
      <trkpt lat="46.1157" lon="4.5689">
        <ele>406.60000610352</ele>
        <time>2020-09-18T13:48:21.000Z</time>
      </trkpt>
      <trkpt lat="46.11572" lon="4.5688">
        <ele>406.79998779297</ele>
        <time>2020-09-18T13:48:23.000Z</time>
      </trkpt>
      <trkpt lat="46.11577" lon="4.56865">
        <ele>407.60000610352</ele>
        <time>2020-09-18T13:48:26.000Z</time>
      </trkpt>
      <trkpt lat="46.11578" lon="4.5686">
        <ele>408</ele>
        <time>2020-09-18T13:48:27.000Z</time>
      </trkpt>
      <trkpt lat="46.11586" lon="4.56835">
        <ele>408.79998779297</ele>
        <time>2020-09-18T13:48:32.000Z</time>
      </trkpt>
      <trkpt lat="46.1159" lon="4.56826">
        <ele>409.39999389648</ele>
        <time>2020-09-18T13:48:34.000Z</time>
      </trkpt>
      <trkpt lat="46.11594" lon="4.56812">
        <ele>409.79998779297</ele>
        <time>2020-09-18T13:48:37.000Z</time>
      </trkpt>
      <trkpt lat="46.11607" lon="4.56774">
        <ele>411.39999389648</ele>
        <time>2020-09-18T13:48:45.000Z</time>
      </trkpt>
      <trkpt lat="46.11614" lon="4.56754">
        <ele>412.20001220703</ele>
        <time>2020-09-18T13:48:49.000Z</time>
      </trkpt>
      <trkpt lat="46.11623" lon="4.56724">
        <ele>410.39999389648</ele>
        <time>2020-09-18T13:48:55.000Z</time>
      </trkpt>
      <trkpt lat="46.11627" lon="4.56714">
        <ele>410</ele>
        <time>2020-09-18T13:48:57.000Z</time>
      </trkpt>
      <trkpt lat="46.11638" lon="4.56691">
        <ele>409.79998779297</ele>
        <time>2020-09-18T13:49:02.000Z</time>
      </trkpt>
      <trkpt lat="46.1164" lon="4.56687">
        <ele>409.79998779297</ele>
        <time>2020-09-18T13:49:03.000Z</time>
      </trkpt>
      <trkpt lat="46.11651" lon="4.56672">
        <ele>410.39999389648</ele>
        <time>2020-09-18T13:49:07.000Z</time>
      </trkpt>
      <trkpt lat="46.11663" lon="4.56659">
        <ele>411.39999389648</ele>
        <time>2020-09-18T13:49:11.000Z</time>
      </trkpt>
      <trkpt lat="46.11677" lon="4.56642">
        <ele>412.79998779297</ele>
        <time>2020-09-18T13:49:16.000Z</time>
      </trkpt>
      <trkpt lat="46.11686" lon="4.56631">
        <ele>413.20001220703</ele>
        <time>2020-09-18T13:49:19.000Z</time>
      </trkpt>
      <trkpt lat="46.11704" lon="4.56607">
        <ele>415.39999389648</ele>
        <time>2020-09-18T13:49:26.000Z</time>
      </trkpt>
      <trkpt lat="46.11707" lon="4.56603">
        <ele>416</ele>
        <time>2020-09-18T13:49:27.000Z</time>
      </trkpt>
      <trkpt lat="46.11727" lon="4.56581">
        <ele>416.39999389648</ele>
        <time>2020-09-18T13:49:34.000Z</time>
      </trkpt>
      <trkpt lat="46.11729" lon="4.56577">
        <ele>416.60000610352</ele>
        <time>2020-09-18T13:49:35.000Z</time>
      </trkpt>
      <trkpt lat="46.11738" lon="4.56567">
        <ele>416.79998779297</ele>
        <time>2020-09-18T13:49:38.000Z</time>
      </trkpt>
      <trkpt lat="46.11753" lon="4.56552">
        <ele>418</ele>
        <time>2020-09-18T13:49:43.000Z</time>
      </trkpt>
      <trkpt lat="46.11772" lon="4.56535">
        <ele>419.60000610352</ele>
        <time>2020-09-18T13:49:49.000Z</time>
      </trkpt>
      <trkpt lat="46.11777" lon="4.56529">
        <ele>420.20001220703</ele>
        <time>2020-09-18T13:49:51.000Z</time>
      </trkpt>
      <trkpt lat="46.11796" lon="4.56512">
        <ele>422.39999389648</ele>
        <time>2020-09-18T13:49:57.000Z</time>
      </trkpt>
      <trkpt lat="46.11802" lon="4.56506">
        <ele>423.20001220703</ele>
        <time>2020-09-18T13:49:59.000Z</time>
      </trkpt>
      <trkpt lat="46.11812" lon="4.56492">
        <ele>424.39999389648</ele>
        <time>2020-09-18T13:50:03.000Z</time>
      </trkpt>
      <trkpt lat="46.11817" lon="4.56485">
        <ele>425</ele>
        <time>2020-09-18T13:50:05.000Z</time>
      </trkpt>
      <trkpt lat="46.1183" lon="4.56457">
        <ele>425.20001220703</ele>
        <time>2020-09-18T13:50:12.000Z</time>
      </trkpt>
      <trkpt lat="46.11832" lon="4.56454">
        <ele>424.79998779297</ele>
        <time>2020-09-18T13:50:13.000Z</time>
      </trkpt>
      <trkpt lat="46.11847" lon="4.56434">
        <ele>426.60000610352</ele>
        <time>2020-09-18T13:50:19.000Z</time>
      </trkpt>
      <trkpt lat="46.1185" lon="4.56432">
        <ele>427.20001220703</ele>
        <time>2020-09-18T13:50:20.000Z</time>
      </trkpt>
      <trkpt lat="46.1186" lon="4.56421">
        <ele>428.79998779297</ele>
        <time>2020-09-18T13:50:24.000Z</time>
      </trkpt>
      <trkpt lat="46.1187" lon="4.56411">
        <ele>430.79998779297</ele>
        <time>2020-09-18T13:50:28.000Z</time>
      </trkpt>
      <trkpt lat="46.11887" lon="4.56397">
        <ele>434.20001220703</ele>
        <time>2020-09-18T13:50:34.000Z</time>
      </trkpt>
      <trkpt lat="46.1189" lon="4.56395">
        <ele>434.79998779297</ele>
        <time>2020-09-18T13:50:35.000Z</time>
      </trkpt>
      <trkpt lat="46.11899" lon="4.56387">
        <ele>436.39999389648</ele>
        <time>2020-09-18T13:50:38.000Z</time>
      </trkpt>
      <trkpt lat="46.11909" lon="4.56374">
        <ele>437.79998779297</ele>
        <time>2020-09-18T13:50:42.000Z</time>
      </trkpt>
      <trkpt lat="46.11918" lon="4.56351">
        <ele>441</ele>
        <time>2020-09-18T13:50:48.000Z</time>
      </trkpt>
      <trkpt lat="46.11909" lon="4.56334">
        <ele>442.20001220703</ele>
        <time>2020-09-18T13:50:52.000Z</time>
      </trkpt>
      <trkpt lat="46.11906" lon="4.56331">
        <ele>442.39999389648</ele>
        <time>2020-09-18T13:50:53.000Z</time>
      </trkpt>
      <trkpt lat="46.119" lon="4.56323">
        <ele>442.60000610352</ele>
        <time>2020-09-18T13:50:55.000Z</time>
      </trkpt>
      <trkpt lat="46.11891" lon="4.56313">
        <ele>442.39999389648</ele>
        <time>2020-09-18T13:50:58.000Z</time>
      </trkpt>
      <trkpt lat="46.11883" lon="4.56304">
        <ele>441.20001220703</ele>
        <time>2020-09-18T13:51:01.000Z</time>
      </trkpt>
      <trkpt lat="46.1188" lon="4.56301">
        <ele>441</ele>
        <time>2020-09-18T13:51:02.000Z</time>
      </trkpt>
      <trkpt lat="46.11863" lon="4.56276">
        <ele>437.79998779297</ele>
        <time>2020-09-18T13:51:09.000Z</time>
      </trkpt>
      <trkpt lat="46.11861" lon="4.56271">
        <ele>437.20001220703</ele>
        <time>2020-09-18T13:51:10.000Z</time>
      </trkpt>
      <trkpt lat="46.11859" lon="4.56257">
        <ele>436.20001220703</ele>
        <time>2020-09-18T13:51:13.000Z</time>
      </trkpt>
      <trkpt lat="46.11859" lon="4.56247">
        <ele>436.39999389648</ele>
        <time>2020-09-18T13:51:15.000Z</time>
      </trkpt>
      <trkpt lat="46.11864" lon="4.56225">
        <ele>439</ele>
        <time>2020-09-18T13:51:20.000Z</time>
      </trkpt>
      <trkpt lat="46.11867" lon="4.56216">
        <ele>440.20001220703</ele>
        <time>2020-09-18T13:51:22.000Z</time>
      </trkpt>
      <trkpt lat="46.1187" lon="4.56207">
        <ele>441.39999389648</ele>
        <time>2020-09-18T13:51:24.000Z</time>
      </trkpt>
      <trkpt lat="46.1188" lon="4.56171">
        <ele>444.60000610352</ele>
        <time>2020-09-18T13:51:32.000Z</time>
      </trkpt>
      <trkpt lat="46.11883" lon="4.56159">
        <ele>445.60000610352</ele>
        <time>2020-09-18T13:51:35.000Z</time>
      </trkpt>
      <trkpt lat="46.11889" lon="4.56138">
        <ele>447</ele>
        <time>2020-09-18T13:51:40.000Z</time>
      </trkpt>
      <trkpt lat="46.11897" lon="4.56103">
        <ele>449</ele>
        <time>2020-09-18T13:51:48.000Z</time>
      </trkpt>
      <trkpt lat="46.11897" lon="4.56098">
        <ele>449</ele>
        <time>2020-09-18T13:51:49.000Z</time>
      </trkpt>
      <trkpt lat="46.11901" lon="4.56065">
        <ele>450</ele>
        <time>2020-09-18T13:51:56.000Z</time>
      </trkpt>
      <trkpt lat="46.11902" lon="4.5606">
        <ele>450.20001220703</ele>
        <time>2020-09-18T13:51:57.000Z</time>
      </trkpt>
      <trkpt lat="46.11902" lon="4.5605">
        <ele>450.39999389648</ele>
        <time>2020-09-18T13:51:59.000Z</time>
      </trkpt>
      <trkpt lat="46.11906" lon="4.56022">
        <ele>451.79998779297</ele>
        <time>2020-09-18T13:52:05.000Z</time>
      </trkpt>
      <trkpt lat="46.11908" lon="4.56008">
        <ele>452.79998779297</ele>
        <time>2020-09-18T13:52:08.000Z</time>
      </trkpt>
      <trkpt lat="46.11913" lon="4.55981">
        <ele>455</ele>
        <time>2020-09-18T13:52:14.000Z</time>
      </trkpt>
      <trkpt lat="46.11914" lon="4.55976">
        <ele>455.39999389648</ele>
        <time>2020-09-18T13:52:15.000Z</time>
      </trkpt>
      <trkpt lat="46.11919" lon="4.55954">
        <ele>456</ele>
        <time>2020-09-18T13:52:20.000Z</time>
      </trkpt>
      <trkpt lat="46.11923" lon="4.55936">
        <ele>457.60000610352</ele>
        <time>2020-09-18T13:52:24.000Z</time>
      </trkpt>
      <trkpt lat="46.11924" lon="4.55931">
        <ele>458.20001220703</ele>
        <time>2020-09-18T13:52:25.000Z</time>
      </trkpt>
      <trkpt lat="46.11929" lon="4.55905">
        <ele>461</ele>
        <time>2020-09-18T13:52:31.000Z</time>
      </trkpt>
      <trkpt lat="46.11933" lon="4.55887">
        <ele>460</ele>
        <time>2020-09-18T13:52:35.000Z</time>
      </trkpt>
      <trkpt lat="46.11939" lon="4.55857">
        <ele>460</ele>
        <time>2020-09-18T13:52:42.000Z</time>
      </trkpt>
      <trkpt lat="46.11942" lon="4.55844">
        <ele>461.60000610352</ele>
        <time>2020-09-18T13:52:45.000Z</time>
      </trkpt>
      <trkpt lat="46.11948" lon="4.55818">
        <ele>461</ele>
        <time>2020-09-18T13:52:51.000Z</time>
      </trkpt>
      <trkpt lat="46.11948" lon="4.55814">
        <ele>460.39999389648</ele>
        <time>2020-09-18T13:52:52.000Z</time>
      </trkpt>
      <trkpt lat="46.11958" lon="4.55771">
        <ele>458.60000610352</ele>
        <time>2020-09-18T13:53:02.000Z</time>
      </trkpt>
      <trkpt lat="46.11966" lon="4.55736">
        <ele>460.79998779297</ele>
        <time>2020-09-18T13:53:10.000Z</time>
      </trkpt>
      <trkpt lat="46.11967" lon="4.55731">
        <ele>461</ele>
        <time>2020-09-18T13:53:11.000Z</time>
      </trkpt>
      <trkpt lat="46.11973" lon="4.55702">
        <ele>462.79998779297</ele>
        <time>2020-09-18T13:53:17.000Z</time>
      </trkpt>
      <trkpt lat="46.11975" lon="4.55692">
        <ele>463.60000610352</ele>
        <time>2020-09-18T13:53:19.000Z</time>
      </trkpt>
      <trkpt lat="46.11977" lon="4.55683">
        <ele>464.20001220703</ele>
        <time>2020-09-18T13:53:21.000Z</time>
      </trkpt>
      <trkpt lat="46.11981" lon="4.55666">
        <ele>466.39999389648</ele>
        <time>2020-09-18T13:53:25.000Z</time>
      </trkpt>
      <trkpt lat="46.11988" lon="4.55641">
        <ele>469.79998779297</ele>
        <time>2020-09-18T13:53:31.000Z</time>
      </trkpt>
      <trkpt lat="46.1199" lon="4.55627">
        <ele>471.60000610352</ele>
        <time>2020-09-18T13:53:34.000Z</time>
      </trkpt>
      <trkpt lat="46.11995" lon="4.55606">
        <ele>473.60000610352</ele>
        <time>2020-09-18T13:53:39.000Z</time>
      </trkpt>
      <trkpt lat="46.11998" lon="4.55593">
        <ele>474.39999389648</ele>
        <time>2020-09-18T13:53:42.000Z</time>
      </trkpt>
      <trkpt lat="46.11999" lon="4.55584">
        <ele>475</ele>
        <time>2020-09-18T13:53:44.000Z</time>
      </trkpt>
      <trkpt lat="46.12001" lon="4.55575">
        <ele>475.60000610352</ele>
        <time>2020-09-18T13:53:46.000Z</time>
      </trkpt>
      <trkpt lat="46.12003" lon="4.55566">
        <ele>476</ele>
        <time>2020-09-18T13:53:48.000Z</time>
      </trkpt>
      <trkpt lat="46.12006" lon="4.55548">
        <ele>477.20001220703</ele>
        <time>2020-09-18T13:53:52.000Z</time>
      </trkpt>
      <trkpt lat="46.12009" lon="4.55534">
        <ele>478.20001220703</ele>
        <time>2020-09-18T13:53:55.000Z</time>
      </trkpt>
      <trkpt lat="46.12012" lon="4.5551">
        <ele>480.20001220703</ele>
        <time>2020-09-18T13:54:00.000Z</time>
      </trkpt>
      <trkpt lat="46.12014" lon="4.55501">
        <ele>481.20001220703</ele>
        <time>2020-09-18T13:54:02.000Z</time>
      </trkpt>
      <trkpt lat="46.12019" lon="4.55471">
        <ele>483.60000610352</ele>
        <time>2020-09-18T13:54:08.000Z</time>
      </trkpt>
      <trkpt lat="46.12019" lon="4.55467">
        <ele>484</ele>
        <time>2020-09-18T13:54:09.000Z</time>
      </trkpt>
      <trkpt lat="46.12019" lon="4.55428">
        <ele>486.79998779297</ele>
        <time>2020-09-18T13:54:17.000Z</time>
      </trkpt>
      <trkpt lat="46.12015" lon="4.55414">
        <ele>486.79998779297</ele>
        <time>2020-09-18T13:54:20.000Z</time>
      </trkpt>
      <trkpt lat="46.12007" lon="4.55401">
        <ele>485.60000610352</ele>
        <time>2020-09-18T13:54:23.000Z</time>
      </trkpt>
      <trkpt lat="46.11988" lon="4.5539">
        <ele>480.60000610352</ele>
        <time>2020-09-18T13:54:28.000Z</time>
      </trkpt>
      <trkpt lat="46.11984" lon="4.55389">
        <ele>479.20001220703</ele>
        <time>2020-09-18T13:54:29.000Z</time>
      </trkpt>
      <trkpt lat="46.11971" lon="4.55395">
        <ele>478.20001220703</ele>
        <time>2020-09-18T13:54:33.000Z</time>
      </trkpt>
      <trkpt lat="46.11961" lon="4.55409">
        <ele>479.60000610352</ele>
        <time>2020-09-18T13:54:37.000Z</time>
      </trkpt>
      <trkpt lat="46.11959" lon="4.55412">
        <ele>480</ele>
        <time>2020-09-18T13:54:38.000Z</time>
      </trkpt>
      <trkpt lat="46.11957" lon="4.55415">
        <ele>480.20001220703</ele>
        <time>2020-09-18T13:54:39.000Z</time>
      </trkpt>
      <trkpt lat="46.11947" lon="4.55434">
        <ele>480.39999389648</ele>
        <time>2020-09-18T13:54:44.000Z</time>
      </trkpt>
      <trkpt lat="46.11946" lon="4.55437">
        <ele>480</ele>
        <time>2020-09-18T13:54:45.000Z</time>
      </trkpt>
      <trkpt lat="46.11938" lon="4.55452">
        <ele>479.39999389648</ele>
        <time>2020-09-18T13:54:49.000Z</time>
      </trkpt>
      <trkpt lat="46.11931" lon="4.55467">
        <ele>480.39999389648</ele>
        <time>2020-09-18T13:54:53.000Z</time>
      </trkpt>
      <trkpt lat="46.11919" lon="4.55493">
        <ele>480.39999389648</ele>
        <time>2020-09-18T13:55:00.000Z</time>
      </trkpt>
      <trkpt lat="46.1191" lon="4.55517">
        <ele>477.79998779297</ele>
        <time>2020-09-18T13:55:06.000Z</time>
      </trkpt>
      <trkpt lat="46.11908" lon="4.55521">
        <ele>477.39999389648</ele>
        <time>2020-09-18T13:55:07.000Z</time>
      </trkpt>
      <trkpt lat="46.11896" lon="4.5556">
        <ele>474.60000610352</ele>
        <time>2020-09-18T13:55:16.000Z</time>
      </trkpt>
      <trkpt lat="46.11891" lon="4.55572">
        <ele>474.20001220703</ele>
        <time>2020-09-18T13:55:19.000Z</time>
      </trkpt>
      <trkpt lat="46.11887" lon="4.5558">
        <ele>474.79998779297</ele>
        <time>2020-09-18T13:55:21.000Z</time>
      </trkpt>
      <trkpt lat="46.11883" lon="4.55589">
        <ele>475.20001220703</ele>
        <time>2020-09-18T13:55:23.000Z</time>
      </trkpt>
      <trkpt lat="46.11881" lon="4.55597">
        <ele>475.20001220703</ele>
        <time>2020-09-18T13:55:25.000Z</time>
      </trkpt>
      <trkpt lat="46.11879" lon="4.55601">
        <ele>475.79998779297</ele>
        <time>2020-09-18T13:55:26.000Z</time>
      </trkpt>
      <trkpt lat="46.11878" lon="4.55605">
        <ele>475.60000610352</ele>
        <time>2020-09-18T13:55:27.000Z</time>
      </trkpt>
      <trkpt lat="46.11876" lon="4.55609">
        <ele>475.60000610352</ele>
        <time>2020-09-18T13:55:28.000Z</time>
      </trkpt>
      <trkpt lat="46.1187" lon="4.55626">
        <ele>476.20001220703</ele>
        <time>2020-09-18T13:55:32.000Z</time>
      </trkpt>
      <trkpt lat="46.11868" lon="4.5563">
        <ele>476.39999389648</ele>
        <time>2020-09-18T13:55:33.000Z</time>
      </trkpt>
      <trkpt lat="46.11865" lon="4.55639">
        <ele>476.79998779297</ele>
        <time>2020-09-18T13:55:35.000Z</time>
      </trkpt>
      <trkpt lat="46.1186" lon="4.55652">
        <ele>477.60000610352</ele>
        <time>2020-09-18T13:55:38.000Z</time>
      </trkpt>
      <trkpt lat="46.11858" lon="4.55656">
        <ele>477.60000610352</ele>
        <time>2020-09-18T13:55:39.000Z</time>
      </trkpt>
      <trkpt lat="46.11857" lon="4.55664">
        <ele>477.60000610352</ele>
        <time>2020-09-18T13:55:41.000Z</time>
      </trkpt>
      <trkpt lat="46.11852" lon="4.55684">
        <ele>477.60000610352</ele>
        <time>2020-09-18T13:55:46.000Z</time>
      </trkpt>
      <trkpt lat="46.11847" lon="4.55696">
        <ele>478</ele>
        <time>2020-09-18T13:55:49.000Z</time>
      </trkpt>
      <trkpt lat="46.11842" lon="4.55707">
        <ele>479</ele>
        <time>2020-09-18T13:55:52.000Z</time>
      </trkpt>
      <trkpt lat="46.11832" lon="4.55724">
        <ele>481</ele>
        <time>2020-09-18T13:55:57.000Z</time>
      </trkpt>
      <trkpt lat="46.1183" lon="4.55727">
        <ele>481</ele>
        <time>2020-09-18T13:55:58.000Z</time>
      </trkpt>
      <trkpt lat="46.11814" lon="4.5574">
        <ele>483.60000610352</ele>
        <time>2020-09-18T13:56:04.000Z</time>
      </trkpt>
      <trkpt lat="46.11808" lon="4.55742">
        <ele>484.39999389648</ele>
        <time>2020-09-18T13:56:06.000Z</time>
      </trkpt>
      <trkpt lat="46.11799" lon="4.55742">
        <ele>485.20001220703</ele>
        <time>2020-09-18T13:56:09.000Z</time>
      </trkpt>
      <trkpt lat="46.11793" lon="4.5574">
        <ele>486</ele>
        <time>2020-09-18T13:56:11.000Z</time>
      </trkpt>
      <trkpt lat="46.1179" lon="4.55739">
        <ele>486.39999389648</ele>
        <time>2020-09-18T13:56:12.000Z</time>
      </trkpt>
      <trkpt lat="46.11785" lon="4.55736">
        <ele>487.39999389648</ele>
        <time>2020-09-18T13:56:14.000Z</time>
      </trkpt>
      <trkpt lat="46.11779" lon="4.55733">
        <ele>488.39999389648</ele>
        <time>2020-09-18T13:56:16.000Z</time>
      </trkpt>
      <trkpt lat="46.11772" lon="4.55727">
        <ele>490</ele>
        <time>2020-09-18T13:56:19.000Z</time>
      </trkpt>
      <trkpt lat="46.11764" lon="4.55721">
        <ele>491.60000610352</ele>
        <time>2020-09-18T13:56:22.000Z</time>
      </trkpt>
      <trkpt lat="46.11758" lon="4.55714">
        <ele>493.20001220703</ele>
        <time>2020-09-18T13:56:25.000Z</time>
      </trkpt>
      <trkpt lat="46.11751" lon="4.55708">
        <ele>494.79998779297</ele>
        <time>2020-09-18T13:56:28.000Z</time>
      </trkpt>
      <trkpt lat="46.11748" lon="4.55706">
        <ele>495.39999389648</ele>
        <time>2020-09-18T13:56:29.000Z</time>
      </trkpt>
      <trkpt lat="46.11735" lon="4.55693">
        <ele>499</ele>
        <time>2020-09-18T13:56:35.000Z</time>
      </trkpt>
      <trkpt lat="46.11732" lon="4.55691">
        <ele>499.60000610352</ele>
        <time>2020-09-18T13:56:36.000Z</time>
      </trkpt>
      <trkpt lat="46.11716" lon="4.55676">
        <ele>503</ele>
        <time>2020-09-18T13:56:43.000Z</time>
      </trkpt>
      <trkpt lat="46.11714" lon="4.55673">
        <ele>503.39999389648</ele>
        <time>2020-09-18T13:56:44.000Z</time>
      </trkpt>
      <trkpt lat="46.11699" lon="4.55657">
        <ele>506.20001220703</ele>
        <time>2020-09-18T13:56:51.000Z</time>
      </trkpt>
      <trkpt lat="46.11684" lon="4.55642">
        <ele>509</ele>
        <time>2020-09-18T13:56:58.000Z</time>
      </trkpt>
      <trkpt lat="46.11674" lon="4.5563">
        <ele>511.20001220703</ele>
        <time>2020-09-18T13:57:03.000Z</time>
      </trkpt>
      <trkpt lat="46.11666" lon="4.55622">
        <ele>512.59997558594</ele>
        <time>2020-09-18T13:57:07.000Z</time>
      </trkpt>
      <trkpt lat="46.11648" lon="4.55602">
        <ele>516.40002441406</ele>
        <time>2020-09-18T13:57:15.000Z</time>
      </trkpt>
      <trkpt lat="46.11642" lon="4.55595">
        <ele>517.20001220703</ele>
        <time>2020-09-18T13:57:18.000Z</time>
      </trkpt>
      <trkpt lat="46.11632" lon="4.55585">
        <ele>517.40002441406</ele>
        <time>2020-09-18T13:57:22.000Z</time>
      </trkpt>
      <trkpt lat="46.11625" lon="4.55578">
        <ele>517.40002441406</ele>
        <time>2020-09-18T13:57:25.000Z</time>
      </trkpt>
      <trkpt lat="46.11618" lon="4.55572">
        <ele>517.40002441406</ele>
        <time>2020-09-18T13:57:28.000Z</time>
      </trkpt>
      <trkpt lat="46.11601" lon="4.55556">
        <ele>517.40002441406</ele>
        <time>2020-09-18T13:57:35.000Z</time>
      </trkpt>
      <trkpt lat="46.11599" lon="4.55553">
        <ele>517.59997558594</ele>
        <time>2020-09-18T13:57:36.000Z</time>
      </trkpt>
      <trkpt lat="46.11593" lon="4.55548">
        <ele>517.40002441406</ele>
        <time>2020-09-18T13:57:38.000Z</time>
      </trkpt>
      <trkpt lat="46.11582" lon="4.55532">
        <ele>518.59997558594</ele>
        <time>2020-09-18T13:57:43.000Z</time>
      </trkpt>
      <trkpt lat="46.11568" lon="4.55511">
        <ele>520</ele>
        <time>2020-09-18T13:57:50.000Z</time>
      </trkpt>
      <trkpt lat="46.11565" lon="4.55504">
        <ele>520.59997558594</ele>
        <time>2020-09-18T13:57:52.000Z</time>
      </trkpt>
      <trkpt lat="46.11551" lon="4.55483">
        <ele>522.40002441406</ele>
        <time>2020-09-18T13:57:59.000Z</time>
      </trkpt>
      <trkpt lat="46.11547" lon="4.55479">
        <ele>522.59997558594</ele>
        <time>2020-09-18T13:58:01.000Z</time>
      </trkpt>
      <trkpt lat="46.11534" lon="4.55468">
        <ele>522.79998779297</ele>
        <time>2020-09-18T13:58:06.000Z</time>
      </trkpt>
      <trkpt lat="46.11526" lon="4.55464">
        <ele>522.20001220703</ele>
        <time>2020-09-18T13:58:09.000Z</time>
      </trkpt>
      <trkpt lat="46.11517" lon="4.5546">
        <ele>521.59997558594</ele>
        <time>2020-09-18T13:58:12.000Z</time>
      </trkpt>
      <trkpt lat="46.11501" lon="4.55452">
        <ele>520.40002441406</ele>
        <time>2020-09-18T13:58:18.000Z</time>
      </trkpt>
      <trkpt lat="46.11487" lon="4.55447">
        <ele>519.79998779297</ele>
        <time>2020-09-18T13:58:23.000Z</time>
      </trkpt>
      <trkpt lat="46.11477" lon="4.55441">
        <ele>519.59997558594</ele>
        <time>2020-09-18T13:58:27.000Z</time>
      </trkpt>
      <trkpt lat="46.11459" lon="4.55429">
        <ele>521.40002441406</ele>
        <time>2020-09-18T13:58:34.000Z</time>
      </trkpt>
      <trkpt lat="46.11453" lon="4.55425">
        <ele>522</ele>
        <time>2020-09-18T13:58:36.000Z</time>
      </trkpt>
      <trkpt lat="46.11446" lon="4.55419">
        <ele>523.20001220703</ele>
        <time>2020-09-18T13:58:39.000Z</time>
      </trkpt>
      <trkpt lat="46.11437" lon="4.5541">
        <ele>525</ele>
        <time>2020-09-18T13:58:43.000Z</time>
      </trkpt>
      <trkpt lat="46.11433" lon="4.55405">
        <ele>525.79998779297</ele>
        <time>2020-09-18T13:58:45.000Z</time>
      </trkpt>
      <trkpt lat="46.11416" lon="4.55389">
        <ele>529</ele>
        <time>2020-09-18T13:58:52.000Z</time>
      </trkpt>
      <trkpt lat="46.11414" lon="4.55387">
        <ele>529.59997558594</ele>
        <time>2020-09-18T13:58:53.000Z</time>
      </trkpt>
      <trkpt lat="46.11405" lon="4.55379">
        <ele>530.79998779297</ele>
        <time>2020-09-18T13:58:57.000Z</time>
      </trkpt>
      <trkpt lat="46.11391" lon="4.55363">
        <ele>533.79998779297</ele>
        <time>2020-09-18T13:59:04.000Z</time>
      </trkpt>
      <trkpt lat="46.11381" lon="4.55353">
        <ele>534.59997558594</ele>
        <time>2020-09-18T13:59:09.000Z</time>
      </trkpt>
      <trkpt lat="46.11368" lon="4.55341">
        <ele>535</ele>
        <time>2020-09-18T13:59:15.000Z</time>
      </trkpt>
      <trkpt lat="46.11363" lon="4.55336">
        <ele>535.59997558594</ele>
        <time>2020-09-18T13:59:17.000Z</time>
      </trkpt>
      <trkpt lat="46.11355" lon="4.55328">
        <ele>536.20001220703</ele>
        <time>2020-09-18T13:59:20.000Z</time>
      </trkpt>
      <trkpt lat="46.11346" lon="4.55318">
        <ele>537.20001220703</ele>
        <time>2020-09-18T13:59:24.000Z</time>
      </trkpt>
      <trkpt lat="46.11331" lon="4.553">
        <ele>538.79998779297</ele>
        <time>2020-09-18T13:59:31.000Z</time>
      </trkpt>
      <trkpt lat="46.11319" lon="4.55283">
        <ele>541</ele>
        <time>2020-09-18T13:59:37.000Z</time>
      </trkpt>
      <trkpt lat="46.11317" lon="4.5528">
        <ele>541.40002441406</ele>
        <time>2020-09-18T13:59:38.000Z</time>
      </trkpt>
      <trkpt lat="46.11312" lon="4.55271">
        <ele>543</ele>
        <time>2020-09-18T13:59:41.000Z</time>
      </trkpt>
      <trkpt lat="46.11305" lon="4.55261">
        <ele>543.79998779297</ele>
        <time>2020-09-18T13:59:44.000Z</time>
      </trkpt>
      <trkpt lat="46.11302" lon="4.55259">
        <ele>543.59997558594</ele>
        <time>2020-09-18T13:59:45.000Z</time>
      </trkpt>
      <trkpt lat="46.11298" lon="4.55252">
        <ele>544.40002441406</ele>
        <time>2020-09-18T13:59:47.000Z</time>
      </trkpt>
      <trkpt lat="46.11294" lon="4.55242">
        <ele>545.59997558594</ele>
        <time>2020-09-18T13:59:50.000Z</time>
      </trkpt>
      <trkpt lat="46.1129" lon="4.55236">
        <ele>546.20001220703</ele>
        <time>2020-09-18T13:59:52.000Z</time>
      </trkpt>
      <trkpt lat="46.11285" lon="4.5523">
        <ele>546.79998779297</ele>
        <time>2020-09-18T13:59:54.000Z</time>
      </trkpt>
      <trkpt lat="46.11282" lon="4.55223">
        <ele>547.59997558594</ele>
        <time>2020-09-18T13:59:56.000Z</time>
      </trkpt>
      <trkpt lat="46.1128" lon="4.5522">
        <ele>547.79998779297</ele>
        <time>2020-09-18T13:59:57.000Z</time>
      </trkpt>
      <trkpt lat="46.11267" lon="4.55194">
        <ele>551</ele>
        <time>2020-09-18T14:00:05.000Z</time>
      </trkpt>
      <trkpt lat="46.11265" lon="4.5519">
        <ele>551.20001220703</ele>
        <time>2020-09-18T14:00:06.000Z</time>
      </trkpt>
      <trkpt lat="46.11259" lon="4.55183">
        <ele>550.79998779297</ele>
        <time>2020-09-18T14:00:09.000Z</time>
      </trkpt>
      <trkpt lat="46.11251" lon="4.55181">
        <ele>549.20001220703</ele>
        <time>2020-09-18T14:00:12.000Z</time>
      </trkpt>
      <trkpt lat="46.11238" lon="4.5519">
        <ele>544</ele>
        <time>2020-09-18T14:00:17.000Z</time>
      </trkpt>
      <trkpt lat="46.11232" lon="4.55206">
        <ele>539</ele>
        <time>2020-09-18T14:00:21.000Z</time>
      </trkpt>
      <trkpt lat="46.11229" lon="4.55214">
        <ele>537.79998779297</ele>
        <time>2020-09-18T14:00:23.000Z</time>
      </trkpt>
      <trkpt lat="46.11225" lon="4.55234">
        <ele>535.59997558594</ele>
        <time>2020-09-18T14:00:28.000Z</time>
      </trkpt>
      <trkpt lat="46.11223" lon="4.55247">
        <ele>534.59997558594</ele>
        <time>2020-09-18T14:00:31.000Z</time>
      </trkpt>
      <trkpt lat="46.11221" lon="4.55254">
        <ele>534</ele>
        <time>2020-09-18T14:00:33.000Z</time>
      </trkpt>
      <trkpt lat="46.11219" lon="4.55271">
        <ele>532.59997558594</ele>
        <time>2020-09-18T14:00:37.000Z</time>
      </trkpt>
      <trkpt lat="46.11218" lon="4.55279">
        <ele>532.40002441406</ele>
        <time>2020-09-18T14:00:39.000Z</time>
      </trkpt>
      <trkpt lat="46.11213" lon="4.55302">
        <ele>532.79998779297</ele>
        <time>2020-09-18T14:00:45.000Z</time>
      </trkpt>
      <trkpt lat="46.11211" lon="4.55313">
        <ele>533</ele>
        <time>2020-09-18T14:00:48.000Z</time>
      </trkpt>
      <trkpt lat="46.11209" lon="4.55329">
        <ele>532.40002441406</ele>
        <time>2020-09-18T14:00:52.000Z</time>
      </trkpt>
      <trkpt lat="46.11207" lon="4.55354">
        <ele>531.79998779297</ele>
        <time>2020-09-18T14:00:59.000Z</time>
      </trkpt>
      <trkpt lat="46.11207" lon="4.55378">
        <ele>532.40002441406</ele>
        <time>2020-09-18T14:01:05.000Z</time>
      </trkpt>
      <trkpt lat="46.11207" lon="4.55398">
        <ele>532.59997558594</ele>
        <time>2020-09-18T14:01:10.000Z</time>
      </trkpt>
      <trkpt lat="46.11209" lon="4.55426">
        <ele>532.20001220703</ele>
        <time>2020-09-18T14:01:17.000Z</time>
      </trkpt>
      <trkpt lat="46.11211" lon="4.55438">
        <ele>531.59997558594</ele>
        <time>2020-09-18T14:01:20.000Z</time>
      </trkpt>
      <trkpt lat="46.11213" lon="4.55451">
        <ele>531.59997558594</ele>
        <time>2020-09-18T14:01:23.000Z</time>
      </trkpt>
      <trkpt lat="46.11215" lon="4.55466">
        <ele>532.20001220703</ele>
        <time>2020-09-18T14:01:27.000Z</time>
      </trkpt>
      <trkpt lat="46.11215" lon="4.5547">
        <ele>532.59997558594</ele>
        <time>2020-09-18T14:01:28.000Z</time>
      </trkpt>
      <trkpt lat="46.11215" lon="4.55473">
        <ele>532.79998779297</ele>
        <time>2020-09-18T14:01:29.000Z</time>
      </trkpt>
      <trkpt lat="46.11216" lon="4.55481">
        <ele>533.20001220703</ele>
        <time>2020-09-18T14:01:31.000Z</time>
      </trkpt>
      <trkpt lat="46.11218" lon="4.55492">
        <ele>533.59997558594</ele>
        <time>2020-09-18T14:01:34.000Z</time>
      </trkpt>
      <trkpt lat="46.11219" lon="4.55496">
        <ele>533.40002441406</ele>
        <time>2020-09-18T14:01:35.000Z</time>
      </trkpt>
      <trkpt lat="46.1122" lon="4.55502">
        <ele>533.79998779297</ele>
        <time>2020-09-18T14:01:37.000Z</time>
      </trkpt>
      <trkpt lat="46.11221" lon="4.5551">
        <ele>533.79998779297</ele>
        <time>2020-09-18T14:01:39.000Z</time>
      </trkpt>
      <trkpt lat="46.11223" lon="4.55519">
        <ele>534.20001220703</ele>
        <time>2020-09-18T14:01:41.000Z</time>
      </trkpt>
      <trkpt lat="46.11224" lon="4.55527">
        <ele>534.40002441406</ele>
        <time>2020-09-18T14:01:43.000Z</time>
      </trkpt>
      <trkpt lat="46.11226" lon="4.55534">
        <ele>534.20001220703</ele>
        <time>2020-09-18T14:01:45.000Z</time>
      </trkpt>
      <trkpt lat="46.11229" lon="4.55543">
        <ele>534.40002441406</ele>
        <time>2020-09-18T14:01:47.000Z</time>
      </trkpt>
      <trkpt lat="46.11231" lon="4.55555">
        <ele>535.20001220703</ele>
        <time>2020-09-18T14:01:50.000Z</time>
      </trkpt>
      <trkpt lat="46.11232" lon="4.55559">
        <ele>535.59997558594</ele>
        <time>2020-09-18T14:01:51.000Z</time>
      </trkpt>
      <trkpt lat="46.11233" lon="4.55566">
        <ele>536.20001220703</ele>
        <time>2020-09-18T14:01:53.000Z</time>
      </trkpt>
      <trkpt lat="46.11234" lon="4.55574">
        <ele>536.79998779297</ele>
        <time>2020-09-18T14:01:55.000Z</time>
      </trkpt>
      <trkpt lat="46.11236" lon="4.55581">
        <ele>537.20001220703</ele>
        <time>2020-09-18T14:01:57.000Z</time>
      </trkpt>
      <trkpt lat="46.11239" lon="4.55598">
        <ele>538.40002441406</ele>
        <time>2020-09-18T14:02:01.000Z</time>
      </trkpt>
      <trkpt lat="46.11239" lon="4.55602">
        <ele>538.79998779297</ele>
        <time>2020-09-18T14:02:02.000Z</time>
      </trkpt>
      <trkpt lat="46.1124" lon="4.55614">
        <ele>540.20001220703</ele>
        <time>2020-09-18T14:02:05.000Z</time>
      </trkpt>
      <trkpt lat="46.11239" lon="4.5563">
        <ele>542.59997558594</ele>
        <time>2020-09-18T14:02:09.000Z</time>
      </trkpt>
      <trkpt lat="46.11236" lon="4.55658">
        <ele>545.40002441406</ele>
        <time>2020-09-18T14:02:16.000Z</time>
      </trkpt>
      <trkpt lat="46.11235" lon="4.55666">
        <ele>546.20001220703</ele>
        <time>2020-09-18T14:02:18.000Z</time>
      </trkpt>
      <trkpt lat="46.11233" lon="4.55688">
        <ele>548.40002441406</ele>
        <time>2020-09-18T14:02:24.000Z</time>
      </trkpt>
      <trkpt lat="46.11232" lon="4.55707">
        <ele>549.79998779297</ele>
        <time>2020-09-18T14:02:29.000Z</time>
      </trkpt>
      <trkpt lat="46.11232" lon="4.55722">
        <ele>550.20001220703</ele>
        <time>2020-09-18T14:02:33.000Z</time>
      </trkpt>
      <trkpt lat="46.11231" lon="4.55731">
        <ele>550.59997558594</ele>
        <time>2020-09-18T14:02:35.000Z</time>
      </trkpt>
      <trkpt lat="46.1123" lon="4.55739">
        <ele>551</ele>
        <time>2020-09-18T14:02:37.000Z</time>
      </trkpt>
      <trkpt lat="46.1123" lon="4.55744">
        <ele>551.20001220703</ele>
        <time>2020-09-18T14:02:38.000Z</time>
      </trkpt>
      <trkpt lat="46.11228" lon="4.55772">
        <ele>552.59997558594</ele>
        <time>2020-09-18T14:02:45.000Z</time>
      </trkpt>
      <trkpt lat="46.11227" lon="4.55776">
        <ele>552.79998779297</ele>
        <time>2020-09-18T14:02:46.000Z</time>
      </trkpt>
      <trkpt lat="46.11227" lon="4.55789">
        <ele>552.79998779297</ele>
        <time>2020-09-18T14:02:49.000Z</time>
      </trkpt>
      <trkpt lat="46.11228" lon="4.55801">
        <ele>552.20001220703</ele>
        <time>2020-09-18T14:02:52.000Z</time>
      </trkpt>
      <trkpt lat="46.11224" lon="4.55823">
        <ele>551.79998779297</ele>
        <time>2020-09-18T14:02:58.000Z</time>
      </trkpt>
      <trkpt lat="46.11209" lon="4.55843">
        <ele>553.79998779297</ele>
        <time>2020-09-18T14:03:05.000Z</time>
      </trkpt>
      <trkpt lat="46.11193" lon="4.55849">
        <ele>555.79998779297</ele>
        <time>2020-09-18T14:03:11.000Z</time>
      </trkpt>
      <trkpt lat="46.11176" lon="4.55842">
        <ele>558.79998779297</ele>
        <time>2020-09-18T14:03:17.000Z</time>
      </trkpt>
      <trkpt lat="46.11174" lon="4.55841">
        <ele>559.40002441406</ele>
        <time>2020-09-18T14:03:18.000Z</time>
      </trkpt>
      <trkpt lat="46.11162" lon="4.55831">
        <ele>562</ele>
        <time>2020-09-18T14:03:23.000Z</time>
      </trkpt>
      <trkpt lat="46.11157" lon="4.55827">
        <ele>563</ele>
        <time>2020-09-18T14:03:25.000Z</time>
      </trkpt>
      <trkpt lat="46.11153" lon="4.55822">
        <ele>564.20001220703</ele>
        <time>2020-09-18T14:03:27.000Z</time>
      </trkpt>
      <trkpt lat="46.11145" lon="4.55813">
        <ele>566.40002441406</ele>
        <time>2020-09-18T14:03:31.000Z</time>
      </trkpt>
      <trkpt lat="46.11136" lon="4.55803">
        <ele>567</ele>
        <time>2020-09-18T14:03:35.000Z</time>
      </trkpt>
      <trkpt lat="46.11127" lon="4.55792">
        <ele>567.40002441406</ele>
        <time>2020-09-18T14:03:39.000Z</time>
      </trkpt>
      <trkpt lat="46.11124" lon="4.5579">
        <ele>567.40002441406</ele>
        <time>2020-09-18T14:03:40.000Z</time>
      </trkpt>
      <trkpt lat="46.11114" lon="4.55777">
        <ele>568.59997558594</ele>
        <time>2020-09-18T14:03:45.000Z</time>
      </trkpt>
      <trkpt lat="46.1111" lon="4.55771">
        <ele>569.20001220703</ele>
        <time>2020-09-18T14:03:47.000Z</time>
      </trkpt>
      <trkpt lat="46.111" lon="4.55756">
        <ele>570.79998779297</ele>
        <time>2020-09-18T14:03:52.000Z</time>
      </trkpt>
      <trkpt lat="46.11097" lon="4.55751">
        <ele>571.59997558594</ele>
        <time>2020-09-18T14:03:54.000Z</time>
      </trkpt>
      <trkpt lat="46.11085" lon="4.55733">
        <ele>573.59997558594</ele>
        <time>2020-09-18T14:04:00.000Z</time>
      </trkpt>
      <trkpt lat="46.1108" lon="4.55724">
        <ele>574.59997558594</ele>
        <time>2020-09-18T14:04:03.000Z</time>
      </trkpt>
      <trkpt lat="46.11066" lon="4.557">
        <ele>577</ele>
        <time>2020-09-18T14:04:11.000Z</time>
      </trkpt>
      <trkpt lat="46.1106" lon="4.55687">
        <ele>578.40002441406</ele>
        <time>2020-09-18T14:04:15.000Z</time>
      </trkpt>
      <trkpt lat="46.11054" lon="4.55673">
        <ele>579.40002441406</ele>
        <time>2020-09-18T14:04:19.000Z</time>
      </trkpt>
      <trkpt lat="46.11051" lon="4.55667">
        <ele>579.59997558594</ele>
        <time>2020-09-18T14:04:21.000Z</time>
      </trkpt>
      <trkpt lat="46.11044" lon="4.55654">
        <ele>580.20001220703</ele>
        <time>2020-09-18T14:04:25.000Z</time>
      </trkpt>
      <trkpt lat="46.11039" lon="4.55645">
        <ele>580.79998779297</ele>
        <time>2020-09-18T14:04:28.000Z</time>
      </trkpt>
      <trkpt lat="46.11025" lon="4.5562">
        <ele>582</ele>
        <time>2020-09-18T14:04:36.000Z</time>
      </trkpt>
      <trkpt lat="46.11015" lon="4.55598">
        <ele>584</ele>
        <time>2020-09-18T14:04:43.000Z</time>
      </trkpt>
      <trkpt lat="46.11013" lon="4.55595">
        <ele>584.20001220703</ele>
        <time>2020-09-18T14:04:44.000Z</time>
      </trkpt>
      <trkpt lat="46.11008" lon="4.55586">
        <ele>585</ele>
        <time>2020-09-18T14:04:47.000Z</time>
      </trkpt>
      <trkpt lat="46.11003" lon="4.55577">
        <ele>585.59997558594</ele>
        <time>2020-09-18T14:04:50.000Z</time>
      </trkpt>
      <trkpt lat="46.11" lon="4.55575">
        <ele>585.59997558594</ele>
        <time>2020-09-18T14:04:51.000Z</time>
      </trkpt>
      <trkpt lat="46.10992" lon="4.55562">
        <ele>586.59997558594</ele>
        <time>2020-09-18T14:04:56.000Z</time>
      </trkpt>
      <trkpt lat="46.10986" lon="4.55554">
        <ele>587.20001220703</ele>
        <time>2020-09-18T14:04:59.000Z</time>
      </trkpt>
      <trkpt lat="46.10981" lon="4.55546">
        <ele>587.79998779297</ele>
        <time>2020-09-18T14:05:02.000Z</time>
      </trkpt>
      <trkpt lat="46.10969" lon="4.55531">
        <ele>588.40002441406</ele>
        <time>2020-09-18T14:05:08.000Z</time>
      </trkpt>
      <trkpt lat="46.10952" lon="4.55507">
        <ele>589.20001220703</ele>
        <time>2020-09-18T14:05:17.000Z</time>
      </trkpt>
      <trkpt lat="46.10948" lon="4.55501">
        <ele>589.40002441406</ele>
        <time>2020-09-18T14:05:19.000Z</time>
      </trkpt>
      <trkpt lat="46.10939" lon="4.55487">
        <ele>589.59997558594</ele>
        <time>2020-09-18T14:05:24.000Z</time>
      </trkpt>
      <trkpt lat="46.10936" lon="4.55481">
        <ele>589.79998779297</ele>
        <time>2020-09-18T14:05:26.000Z</time>
      </trkpt>
      <trkpt lat="46.10924" lon="4.55457">
        <ele>590.79998779297</ele>
        <time>2020-09-18T14:05:34.000Z</time>
      </trkpt>
      <trkpt lat="46.10923" lon="4.55454">
        <ele>590.79998779297</ele>
        <time>2020-09-18T14:05:35.000Z</time>
      </trkpt>
      <trkpt lat="46.10916" lon="4.55435">
        <ele>592.40002441406</ele>
        <time>2020-09-18T14:05:41.000Z</time>
      </trkpt>
      <trkpt lat="46.10914" lon="4.55428">
        <ele>592.79998779297</ele>
        <time>2020-09-18T14:05:43.000Z</time>
      </trkpt>
      <trkpt lat="46.10907" lon="4.55405">
        <ele>595</ele>
        <time>2020-09-18T14:05:50.000Z</time>
      </trkpt>
      <trkpt lat="46.109" lon="4.55381">
        <ele>597</ele>
        <time>2020-09-18T14:05:57.000Z</time>
      </trkpt>
      <trkpt lat="46.10897" lon="4.55371">
        <ele>597.79998779297</ele>
        <time>2020-09-18T14:06:00.000Z</time>
      </trkpt>
      <trkpt lat="46.10891" lon="4.55354">
        <ele>598.79998779297</ele>
        <time>2020-09-18T14:06:05.000Z</time>
      </trkpt>
      <trkpt lat="46.1089" lon="4.55348">
        <ele>599</ele>
        <time>2020-09-18T14:06:07.000Z</time>
      </trkpt>
      <trkpt lat="46.10886" lon="4.55333">
        <ele>599.59997558594</ele>
        <time>2020-09-18T14:06:11.000Z</time>
      </trkpt>
      <trkpt lat="46.10882" lon="4.5532">
        <ele>600</ele>
        <time>2020-09-18T14:06:15.000Z</time>
      </trkpt>
      <trkpt lat="46.10878" lon="4.55305">
        <ele>600.20001220703</ele>
        <time>2020-09-18T14:06:19.000Z</time>
      </trkpt>
      <trkpt lat="46.10874" lon="4.55292">
        <ele>600.59997558594</ele>
        <time>2020-09-18T14:06:23.000Z</time>
      </trkpt>
      <trkpt lat="46.10873" lon="4.55288">
        <ele>600.59997558594</ele>
        <time>2020-09-18T14:06:24.000Z</time>
      </trkpt>
      <trkpt lat="46.10868" lon="4.55271">
        <ele>603</ele>
        <time>2020-09-18T14:06:29.000Z</time>
      </trkpt>
      <trkpt lat="46.10865" lon="4.55261">
        <ele>604.79998779297</ele>
        <time>2020-09-18T14:06:32.000Z</time>
      </trkpt>
      <trkpt lat="46.10862" lon="4.55255">
        <ele>605.79998779297</ele>
        <time>2020-09-18T14:06:34.000Z</time>
      </trkpt>
      <trkpt lat="46.10855" lon="4.55236">
        <ele>608</ele>
        <time>2020-09-18T14:06:40.000Z</time>
      </trkpt>
      <trkpt lat="46.10851" lon="4.55227">
        <ele>608.79998779297</ele>
        <time>2020-09-18T14:06:43.000Z</time>
      </trkpt>
      <trkpt lat="46.10843" lon="4.55213">
        <ele>609.79998779297</ele>
        <time>2020-09-18T14:06:48.000Z</time>
      </trkpt>
      <trkpt lat="46.10842" lon="4.5521">
        <ele>610</ele>
        <time>2020-09-18T14:06:49.000Z</time>
      </trkpt>
      <trkpt lat="46.10831" lon="4.5519">
        <ele>612</ele>
        <time>2020-09-18T14:06:56.000Z</time>
      </trkpt>
      <trkpt lat="46.10822" lon="4.55173">
        <ele>613.59997558594</ele>
        <time>2020-09-18T14:07:02.000Z</time>
      </trkpt>
      <trkpt lat="46.10816" lon="4.55164">
        <ele>614.40002441406</ele>
        <time>2020-09-18T14:07:05.000Z</time>
      </trkpt>
      <trkpt lat="46.10813" lon="4.55158">
        <ele>614.79998779297</ele>
        <time>2020-09-18T14:07:07.000Z</time>
      </trkpt>
      <trkpt lat="46.10805" lon="4.55143">
        <ele>616</ele>
        <time>2020-09-18T14:07:12.000Z</time>
      </trkpt>
      <trkpt lat="46.10796" lon="4.55129">
        <ele>616.59997558594</ele>
        <time>2020-09-18T14:07:17.000Z</time>
      </trkpt>
      <trkpt lat="46.10795" lon="4.55126">
        <ele>616.79998779297</ele>
        <time>2020-09-18T14:07:18.000Z</time>
      </trkpt>
      <trkpt lat="46.10783" lon="4.55102">
        <ele>618</ele>
        <time>2020-09-18T14:07:26.000Z</time>
      </trkpt>
      <trkpt lat="46.10775" lon="4.55087">
        <ele>618</ele>
        <time>2020-09-18T14:07:31.000Z</time>
      </trkpt>
      <trkpt lat="46.10768" lon="4.55072">
        <ele>618.40002441406</ele>
        <time>2020-09-18T14:07:36.000Z</time>
      </trkpt>
      <trkpt lat="46.10762" lon="4.5506">
        <ele>618.59997558594</ele>
        <time>2020-09-18T14:07:40.000Z</time>
      </trkpt>
      <trkpt lat="46.10757" lon="4.55047">
        <ele>619</ele>
        <time>2020-09-18T14:07:44.000Z</time>
      </trkpt>
      <trkpt lat="46.10756" lon="4.55044">
        <ele>619.40002441406</ele>
        <time>2020-09-18T14:07:45.000Z</time>
      </trkpt>
      <trkpt lat="46.10751" lon="4.55027">
        <ele>620.40002441406</ele>
        <time>2020-09-18T14:07:50.000Z</time>
      </trkpt>
      <trkpt lat="46.10748" lon="4.55016">
        <ele>621.40002441406</ele>
        <time>2020-09-18T14:07:53.000Z</time>
      </trkpt>
      <trkpt lat="46.10742" lon="4.54995">
        <ele>623.59997558594</ele>
        <time>2020-09-18T14:07:59.000Z</time>
      </trkpt>
      <trkpt lat="46.10737" lon="4.54978">
        <ele>625.20001220703</ele>
        <time>2020-09-18T14:08:04.000Z</time>
      </trkpt>
      <trkpt lat="46.10735" lon="4.54968">
        <ele>626.20001220703</ele>
        <time>2020-09-18T14:08:07.000Z</time>
      </trkpt>
      <trkpt lat="46.1073" lon="4.54951">
        <ele>627.79998779297</ele>
        <time>2020-09-18T14:08:12.000Z</time>
      </trkpt>
      <trkpt lat="46.10728" lon="4.54944">
        <ele>628.59997558594</ele>
        <time>2020-09-18T14:08:14.000Z</time>
      </trkpt>
      <trkpt lat="46.10726" lon="4.54938">
        <ele>629.40002441406</ele>
        <time>2020-09-18T14:08:16.000Z</time>
      </trkpt>
      <trkpt lat="46.10719" lon="4.54917">
        <ele>631.79998779297</ele>
        <time>2020-09-18T14:08:22.000Z</time>
      </trkpt>
      <trkpt lat="46.10716" lon="4.54911">
        <ele>632.59997558594</ele>
        <time>2020-09-18T14:08:24.000Z</time>
      </trkpt>
      <trkpt lat="46.10709" lon="4.54899">
        <ele>633.40002441406</ele>
        <time>2020-09-18T14:08:28.000Z</time>
      </trkpt>
      <trkpt lat="46.10706" lon="4.54894">
        <ele>633.79998779297</ele>
        <time>2020-09-18T14:08:30.000Z</time>
      </trkpt>
      <trkpt lat="46.10694" lon="4.54877">
        <ele>634.40002441406</ele>
        <time>2020-09-18T14:08:36.000Z</time>
      </trkpt>
      <trkpt lat="46.10678" lon="4.54868">
        <ele>633</ele>
        <time>2020-09-18T14:08:42.000Z</time>
      </trkpt>
      <trkpt lat="46.10656" lon="4.54857">
        <ele>632</ele>
        <time>2020-09-18T14:08:49.000Z</time>
      </trkpt>
      <trkpt lat="46.10636" lon="4.5485">
        <ele>630.20001220703</ele>
        <time>2020-09-18T14:08:55.000Z</time>
      </trkpt>
      <trkpt lat="46.1062" lon="4.54845">
        <ele>628.20001220703</ele>
        <time>2020-09-18T14:09:00.000Z</time>
      </trkpt>
      <trkpt lat="46.10594" lon="4.54836">
        <ele>627.40002441406</ele>
        <time>2020-09-18T14:09:08.000Z</time>
      </trkpt>
      <trkpt lat="46.10584" lon="4.54825">
        <ele>628.59997558594</ele>
        <time>2020-09-18T14:09:12.000Z</time>
      </trkpt>
      <trkpt lat="46.10578" lon="4.54815">
        <ele>630</ele>
        <time>2020-09-18T14:09:15.000Z</time>
      </trkpt>
      <trkpt lat="46.10568" lon="4.54799">
        <ele>632.59997558594</ele>
        <time>2020-09-18T14:09:20.000Z</time>
      </trkpt>
      <trkpt lat="46.10567" lon="4.54795">
        <ele>633.20001220703</ele>
        <time>2020-09-18T14:09:21.000Z</time>
      </trkpt>
      <trkpt lat="46.10563" lon="4.54789">
        <ele>634.20001220703</ele>
        <time>2020-09-18T14:09:23.000Z</time>
      </trkpt>
      <trkpt lat="46.10557" lon="4.54779">
        <ele>636</ele>
        <time>2020-09-18T14:09:26.000Z</time>
      </trkpt>
      <trkpt lat="46.10551" lon="4.54769">
        <ele>637.59997558594</ele>
        <time>2020-09-18T14:09:29.000Z</time>
      </trkpt>
      <trkpt lat="46.10547" lon="4.54762">
        <ele>638.79998779297</ele>
        <time>2020-09-18T14:09:31.000Z</time>
      </trkpt>
      <trkpt lat="46.1054" lon="4.5475">
        <ele>641</ele>
        <time>2020-09-18T14:09:35.000Z</time>
      </trkpt>
      <trkpt lat="46.10538" lon="4.54746">
        <ele>641.59997558594</ele>
        <time>2020-09-18T14:09:36.000Z</time>
      </trkpt>
      <trkpt lat="46.10533" lon="4.54736">
        <ele>643.59997558594</ele>
        <time>2020-09-18T14:09:39.000Z</time>
      </trkpt>
      <trkpt lat="46.10522" lon="4.54718">
        <ele>646.59997558594</ele>
        <time>2020-09-18T14:09:45.000Z</time>
      </trkpt>
      <trkpt lat="46.10515" lon="4.54704">
        <ele>649.40002441406</ele>
        <time>2020-09-18T14:09:50.000Z</time>
      </trkpt>
      <trkpt lat="46.10513" lon="4.54701">
        <ele>650</ele>
        <time>2020-09-18T14:09:51.000Z</time>
      </trkpt>
      <trkpt lat="46.10502" lon="4.54683">
        <ele>654.40002441406</ele>
        <time>2020-09-18T14:09:57.000Z</time>
      </trkpt>
      <trkpt lat="46.105" lon="4.5468">
        <ele>655.20001220703</ele>
        <time>2020-09-18T14:09:58.000Z</time>
      </trkpt>
      <trkpt lat="46.10488" lon="4.54666">
        <ele>657.59997558594</ele>
        <time>2020-09-18T14:10:04.000Z</time>
      </trkpt>
      <trkpt lat="46.10476" lon="4.54655">
        <ele>659.59997558594</ele>
        <time>2020-09-18T14:10:10.000Z</time>
      </trkpt>
      <trkpt lat="46.10461" lon="4.54647">
        <ele>661.40002441406</ele>
        <time>2020-09-18T14:10:17.000Z</time>
      </trkpt>
      <trkpt lat="46.10442" lon="4.54643">
        <ele>661.40002441406</ele>
        <time>2020-09-18T14:10:25.000Z</time>
      </trkpt>
      <trkpt lat="46.10426" lon="4.54641">
        <ele>660.79998779297</ele>
        <time>2020-09-18T14:10:32.000Z</time>
      </trkpt>
      <trkpt lat="46.1042" lon="4.5464">
        <ele>660.79998779297</ele>
        <time>2020-09-18T14:10:35.000Z</time>
      </trkpt>
      <trkpt lat="46.10411" lon="4.54639">
        <ele>660.40002441406</ele>
        <time>2020-09-18T14:10:39.000Z</time>
      </trkpt>
      <trkpt lat="46.10401" lon="4.54639">
        <ele>659.40002441406</ele>
        <time>2020-09-18T14:10:43.000Z</time>
      </trkpt>
      <trkpt lat="46.10396" lon="4.54638">
        <ele>659</ele>
        <time>2020-09-18T14:10:45.000Z</time>
      </trkpt>
      <trkpt lat="46.1039" lon="4.54638">
        <ele>658.59997558594</ele>
        <time>2020-09-18T14:10:47.000Z</time>
      </trkpt>
      <trkpt lat="46.10384" lon="4.54639">
        <ele>658</ele>
        <time>2020-09-18T14:10:49.000Z</time>
      </trkpt>
      <trkpt lat="46.10377" lon="4.54639">
        <ele>657.59997558594</ele>
        <time>2020-09-18T14:10:51.000Z</time>
      </trkpt>
      <trkpt lat="46.10366" lon="4.54638">
        <ele>657</ele>
        <time>2020-09-18T14:10:55.000Z</time>
      </trkpt>
      <trkpt lat="46.10356" lon="4.54637">
        <ele>657</ele>
        <time>2020-09-18T14:10:58.000Z</time>
      </trkpt>
      <trkpt lat="46.10336" lon="4.54632">
        <ele>657.59997558594</ele>
        <time>2020-09-18T14:11:05.000Z</time>
      </trkpt>
      <trkpt lat="46.10333" lon="4.54631">
        <ele>657.79998779297</ele>
        <time>2020-09-18T14:11:06.000Z</time>
      </trkpt>
      <trkpt lat="46.10324" lon="4.54628">
        <ele>658.79998779297</ele>
        <time>2020-09-18T14:11:09.000Z</time>
      </trkpt>
      <trkpt lat="46.10311" lon="4.54622">
        <ele>660.59997558594</ele>
        <time>2020-09-18T14:11:14.000Z</time>
      </trkpt>
      <trkpt lat="46.10309" lon="4.5462">
        <ele>660.79998779297</ele>
        <time>2020-09-18T14:11:15.000Z</time>
      </trkpt>
      <trkpt lat="46.10298" lon="4.54613">
        <ele>661.20001220703</ele>
        <time>2020-09-18T14:11:19.000Z</time>
      </trkpt>
      <trkpt lat="46.10291" lon="4.54608">
        <ele>661.79998779297</ele>
        <time>2020-09-18T14:11:22.000Z</time>
      </trkpt>
      <trkpt lat="46.10289" lon="4.54606">
        <ele>662</ele>
        <time>2020-09-18T14:11:23.000Z</time>
      </trkpt>
      <trkpt lat="46.10277" lon="4.54596">
        <ele>663.40002441406</ele>
        <time>2020-09-18T14:11:28.000Z</time>
      </trkpt>
      <trkpt lat="46.10271" lon="4.54591">
        <ele>664.20001220703</ele>
        <time>2020-09-18T14:11:31.000Z</time>
      </trkpt>
      <trkpt lat="46.10263" lon="4.54584">
        <ele>665</ele>
        <time>2020-09-18T14:11:34.000Z</time>
      </trkpt>
      <trkpt lat="46.10255" lon="4.54575">
        <ele>666.59997558594</ele>
        <time>2020-09-18T14:11:38.000Z</time>
      </trkpt>
      <trkpt lat="46.1025" lon="4.54571">
        <ele>667.40002441406</ele>
        <time>2020-09-18T14:11:40.000Z</time>
      </trkpt>
      <trkpt lat="46.10241" lon="4.54562">
        <ele>669</ele>
        <time>2020-09-18T14:11:44.000Z</time>
      </trkpt>
      <trkpt lat="46.10237" lon="4.54557">
        <ele>669.79998779297</ele>
        <time>2020-09-18T14:11:46.000Z</time>
      </trkpt>
      <trkpt lat="46.10223" lon="4.5454">
        <ele>672.59997558594</ele>
        <time>2020-09-18T14:11:53.000Z</time>
      </trkpt>
      <trkpt lat="46.10207" lon="4.54522">
        <ele>673.20001220703</ele>
        <time>2020-09-18T14:12:01.000Z</time>
      </trkpt>
      <trkpt lat="46.10197" lon="4.54511">
        <ele>673.40002441406</ele>
        <time>2020-09-18T14:12:06.000Z</time>
      </trkpt>
      <trkpt lat="46.10193" lon="4.54507">
        <ele>673.59997558594</ele>
        <time>2020-09-18T14:12:08.000Z</time>
      </trkpt>
      <trkpt lat="46.1018" lon="4.5449">
        <ele>674.79998779297</ele>
        <time>2020-09-18T14:12:15.000Z</time>
      </trkpt>
      <trkpt lat="46.10177" lon="4.54484">
        <ele>675.40002441406</ele>
        <time>2020-09-18T14:12:17.000Z</time>
      </trkpt>
      <trkpt lat="46.10169" lon="4.5447">
        <ele>677.20001220703</ele>
        <time>2020-09-18T14:12:22.000Z</time>
      </trkpt>
      <trkpt lat="46.10167" lon="4.54467">
        <ele>677.59997558594</ele>
        <time>2020-09-18T14:12:23.000Z</time>
      </trkpt>
      <trkpt lat="46.10161" lon="4.54455">
        <ele>679.20001220703</ele>
        <time>2020-09-18T14:12:27.000Z</time>
      </trkpt>
      <trkpt lat="46.10156" lon="4.54443">
        <ele>680.79998779297</ele>
        <time>2020-09-18T14:12:31.000Z</time>
      </trkpt>
      <trkpt lat="46.10154" lon="4.5444">
        <ele>681.20001220703</ele>
        <time>2020-09-18T14:12:32.000Z</time>
      </trkpt>
      <trkpt lat="46.1015" lon="4.54431">
        <ele>682</ele>
        <time>2020-09-18T14:12:35.000Z</time>
      </trkpt>
      <trkpt lat="46.10148" lon="4.54424">
        <ele>682.79998779297</ele>
        <time>2020-09-18T14:12:37.000Z</time>
      </trkpt>
      <trkpt lat="46.10145" lon="4.54418">
        <ele>683.40002441406</ele>
        <time>2020-09-18T14:12:39.000Z</time>
      </trkpt>
      <trkpt lat="46.10141" lon="4.54409">
        <ele>684.79998779297</ele>
        <time>2020-09-18T14:12:42.000Z</time>
      </trkpt>
      <trkpt lat="46.10138" lon="4.544">
        <ele>686.20001220703</ele>
        <time>2020-09-18T14:12:45.000Z</time>
      </trkpt>
      <trkpt lat="46.10136" lon="4.54397">
        <ele>686.59997558594</ele>
        <time>2020-09-18T14:12:46.000Z</time>
      </trkpt>
      <trkpt lat="46.10132" lon="4.54388">
        <ele>688.20001220703</ele>
        <time>2020-09-18T14:12:49.000Z</time>
      </trkpt>
      <trkpt lat="46.10127" lon="4.5438">
        <ele>689.40002441406</ele>
        <time>2020-09-18T14:12:52.000Z</time>
      </trkpt>
      <trkpt lat="46.10124" lon="4.54374">
        <ele>690</ele>
        <time>2020-09-18T14:12:54.000Z</time>
      </trkpt>
      <trkpt lat="46.10116" lon="4.54366">
        <ele>690.59997558594</ele>
        <time>2020-09-18T14:12:58.000Z</time>
      </trkpt>
      <trkpt lat="46.10112" lon="4.54363">
        <ele>691.20001220703</ele>
        <time>2020-09-18T14:13:00.000Z</time>
      </trkpt>
      <trkpt lat="46.10105" lon="4.54359">
        <ele>691.40002441406</ele>
        <time>2020-09-18T14:13:03.000Z</time>
      </trkpt>
      <trkpt lat="46.101" lon="4.54356">
        <ele>691.20001220703</ele>
        <time>2020-09-18T14:13:05.000Z</time>
      </trkpt>
      <trkpt lat="46.10091" lon="4.54354">
        <ele>690.59997558594</ele>
        <time>2020-09-18T14:13:08.000Z</time>
      </trkpt>
      <trkpt lat="46.10078" lon="4.54351">
        <ele>689.20001220703</ele>
        <time>2020-09-18T14:13:13.000Z</time>
      </trkpt>
      <trkpt lat="46.1007" lon="4.54351">
        <ele>688</ele>
        <time>2020-09-18T14:13:16.000Z</time>
      </trkpt>
      <trkpt lat="46.10062" lon="4.54349">
        <ele>687.20001220703</ele>
        <time>2020-09-18T14:13:19.000Z</time>
      </trkpt>
      <trkpt lat="46.10044" lon="4.54345">
        <ele>688.79998779297</ele>
        <time>2020-09-18T14:13:25.000Z</time>
      </trkpt>
      <trkpt lat="46.10023" lon="4.54346">
        <ele>688.59997558594</ele>
        <time>2020-09-18T14:13:33.000Z</time>
      </trkpt>
      <trkpt lat="46.10005" lon="4.54344">
        <ele>689.40002441406</ele>
        <time>2020-09-18T14:13:40.000Z</time>
      </trkpt>
      <trkpt lat="46.09983" lon="4.54342">
        <ele>690.20001220703</ele>
        <time>2020-09-18T14:13:48.000Z</time>
      </trkpt>
      <trkpt lat="46.09974" lon="4.54342">
        <ele>690.20001220703</ele>
        <time>2020-09-18T14:13:52.000Z</time>
      </trkpt>
      <trkpt lat="46.09964" lon="4.5434">
        <ele>690.40002441406</ele>
        <time>2020-09-18T14:13:56.000Z</time>
      </trkpt>
      <trkpt lat="46.09962" lon="4.54339">
        <ele>690.59997558594</ele>
        <time>2020-09-18T14:13:57.000Z</time>
      </trkpt>
      <trkpt lat="46.09947" lon="4.54335">
        <ele>691.59997558594</ele>
        <time>2020-09-18T14:14:03.000Z</time>
      </trkpt>
      <trkpt lat="46.09935" lon="4.5433">
        <ele>692.40002441406</ele>
        <time>2020-09-18T14:14:08.000Z</time>
      </trkpt>
      <trkpt lat="46.0993" lon="4.54329">
        <ele>692.79998779297</ele>
        <time>2020-09-18T14:14:10.000Z</time>
      </trkpt>
      <trkpt lat="46.09915" lon="4.54322">
        <ele>694.20001220703</ele>
        <time>2020-09-18T14:14:16.000Z</time>
      </trkpt>
      <trkpt lat="46.0991" lon="4.5432">
        <ele>694.59997558594</ele>
        <time>2020-09-18T14:14:18.000Z</time>
      </trkpt>
      <trkpt lat="46.09895" lon="4.54313">
        <ele>695.79998779297</ele>
        <time>2020-09-18T14:14:24.000Z</time>
      </trkpt>
      <trkpt lat="46.09892" lon="4.54312">
        <ele>696</ele>
        <time>2020-09-18T14:14:25.000Z</time>
      </trkpt>
      <trkpt lat="46.09888" lon="4.5431">
        <ele>696.20001220703</ele>
        <time>2020-09-18T14:14:27.000Z</time>
      </trkpt>
      <trkpt lat="46.09881" lon="4.54306">
        <ele>697</ele>
        <time>2020-09-18T14:14:30.000Z</time>
      </trkpt>
      <trkpt lat="46.09865" lon="4.54297">
        <ele>698.79998779297</ele>
        <time>2020-09-18T14:14:37.000Z</time>
      </trkpt>
      <trkpt lat="46.09852" lon="4.54291">
        <ele>699.79998779297</ele>
        <time>2020-09-18T14:14:43.000Z</time>
      </trkpt>
      <trkpt lat="46.09839" lon="4.54283">
        <ele>701</ele>
        <time>2020-09-18T14:14:49.000Z</time>
      </trkpt>
      <trkpt lat="46.09822" lon="4.54273">
        <ele>700.20001220703</ele>
        <time>2020-09-18T14:14:57.000Z</time>
      </trkpt>
      <trkpt lat="46.09819" lon="4.54271">
        <ele>700</ele>
        <time>2020-09-18T14:14:58.000Z</time>
      </trkpt>
      <trkpt lat="46.09814" lon="4.54269">
        <ele>699.59997558594</ele>
        <time>2020-09-18T14:15:00.000Z</time>
      </trkpt>
      <trkpt lat="46.09808" lon="4.54267">
        <ele>699.20001220703</ele>
        <time>2020-09-18T14:15:02.000Z</time>
      </trkpt>
      <trkpt lat="46.09806" lon="4.54266">
        <ele>698.79998779297</ele>
        <time>2020-09-18T14:15:03.000Z</time>
      </trkpt>
      <trkpt lat="46.09801" lon="4.54264">
        <ele>698.20001220703</ele>
        <time>2020-09-18T14:15:05.000Z</time>
      </trkpt>
      <trkpt lat="46.09791" lon="4.54259">
        <ele>697</ele>
        <time>2020-09-18T14:15:09.000Z</time>
      </trkpt>
      <trkpt lat="46.09779" lon="4.54254">
        <ele>695.40002441406</ele>
        <time>2020-09-18T14:15:14.000Z</time>
      </trkpt>
      <trkpt lat="46.09773" lon="4.54252">
        <ele>694.79998779297</ele>
        <time>2020-09-18T14:15:16.000Z</time>
      </trkpt>
      <trkpt lat="46.09756" lon="4.54242">
        <ele>693.20001220703</ele>
        <time>2020-09-18T14:15:23.000Z</time>
      </trkpt>
      <trkpt lat="46.09743" lon="4.5423">
        <ele>692.59997558594</ele>
        <time>2020-09-18T14:15:29.000Z</time>
      </trkpt>
      <trkpt lat="46.09736" lon="4.54222">
        <ele>692.40002441406</ele>
        <time>2020-09-18T14:15:32.000Z</time>
      </trkpt>
      <trkpt lat="46.09733" lon="4.54216">
        <ele>692.40002441406</ele>
        <time>2020-09-18T14:15:34.000Z</time>
      </trkpt>
      <trkpt lat="46.09729" lon="4.54207">
        <ele>692.79998779297</ele>
        <time>2020-09-18T14:15:37.000Z</time>
      </trkpt>
      <trkpt lat="46.09728" lon="4.54204">
        <ele>692.79998779297</ele>
        <time>2020-09-18T14:15:38.000Z</time>
      </trkpt>
      <trkpt lat="46.09726" lon="4.54202">
        <ele>692.79998779297</ele>
        <time>2020-09-18T14:15:39.000Z</time>
      </trkpt>
      <trkpt lat="46.09724" lon="4.54199">
        <ele>692.59997558594</ele>
        <time>2020-09-18T14:15:40.000Z</time>
      </trkpt>
      <trkpt lat="46.09717" lon="4.54199">
        <ele>692</ele>
        <time>2020-09-18T14:15:43.000Z</time>
      </trkpt>
      <trkpt lat="46.09712" lon="4.54203">
        <ele>691.59997558594</ele>
        <time>2020-09-18T14:15:45.000Z</time>
      </trkpt>
      <trkpt lat="46.09704" lon="4.54206">
        <ele>690.59997558594</ele>
        <time>2020-09-18T14:15:48.000Z</time>
      </trkpt>
      <trkpt lat="46.09701" lon="4.54205">
        <ele>690.40002441406</ele>
        <time>2020-09-18T14:15:49.000Z</time>
      </trkpt>
      <trkpt lat="46.09684" lon="4.54198">
        <ele>689</ele>
        <time>2020-09-18T14:15:56.000Z</time>
      </trkpt>
      <trkpt lat="46.09681" lon="4.54196">
        <ele>688.59997558594</ele>
        <time>2020-09-18T14:15:57.000Z</time>
      </trkpt>
      <trkpt lat="46.09667" lon="4.54189">
        <ele>686.59997558594</ele>
        <time>2020-09-18T14:16:03.000Z</time>
      </trkpt>
      <trkpt lat="46.09664" lon="4.54188">
        <ele>686.20001220703</ele>
        <time>2020-09-18T14:16:04.000Z</time>
      </trkpt>
      <trkpt lat="46.09654" lon="4.54183">
        <ele>684.79998779297</ele>
        <time>2020-09-18T14:16:08.000Z</time>
      </trkpt>
      <trkpt lat="46.09646" lon="4.54179">
        <ele>683.59997558594</ele>
        <time>2020-09-18T14:16:11.000Z</time>
      </trkpt>
      <trkpt lat="46.09637" lon="4.54174">
        <ele>683.20001220703</ele>
        <time>2020-09-18T14:16:15.000Z</time>
      </trkpt>
      <trkpt lat="46.09632" lon="4.54171">
        <ele>683.40002441406</ele>
        <time>2020-09-18T14:16:17.000Z</time>
      </trkpt>
      <trkpt lat="46.09624" lon="4.54167">
        <ele>683.59997558594</ele>
        <time>2020-09-18T14:16:20.000Z</time>
      </trkpt>
      <trkpt lat="46.09616" lon="4.54164">
        <ele>683.79998779297</ele>
        <time>2020-09-18T14:16:23.000Z</time>
      </trkpt>
      <trkpt lat="46.09611" lon="4.54161">
        <ele>684</ele>
        <time>2020-09-18T14:16:25.000Z</time>
      </trkpt>
      <trkpt lat="46.09601" lon="4.54156">
        <ele>684.20001220703</ele>
        <time>2020-09-18T14:16:29.000Z</time>
      </trkpt>
      <trkpt lat="46.09588" lon="4.5415">
        <ele>684.59997558594</ele>
        <time>2020-09-18T14:16:34.000Z</time>
      </trkpt>
      <trkpt lat="46.09583" lon="4.54147">
        <ele>684.79998779297</ele>
        <time>2020-09-18T14:16:36.000Z</time>
      </trkpt>
      <trkpt lat="46.09574" lon="4.54143">
        <ele>685.20001220703</ele>
        <time>2020-09-18T14:16:40.000Z</time>
      </trkpt>
      <trkpt lat="46.09569" lon="4.5414">
        <ele>685.40002441406</ele>
        <time>2020-09-18T14:16:42.000Z</time>
      </trkpt>
      <trkpt lat="46.09556" lon="4.54134">
        <ele>685.79998779297</ele>
        <time>2020-09-18T14:16:47.000Z</time>
      </trkpt>
      <trkpt lat="46.09544" lon="4.54131">
        <ele>686.40002441406</ele>
        <time>2020-09-18T14:16:52.000Z</time>
      </trkpt>
      <trkpt lat="46.09538" lon="4.5413">
        <ele>686.59997558594</ele>
        <time>2020-09-18T14:16:54.000Z</time>
      </trkpt>
      <trkpt lat="46.09525" lon="4.54133">
        <ele>688.20001220703</ele>
        <time>2020-09-18T14:16:59.000Z</time>
      </trkpt>
      <trkpt lat="46.09523" lon="4.54134">
        <ele>688.59997558594</ele>
        <time>2020-09-18T14:17:00.000Z</time>
      </trkpt>
      <trkpt lat="46.0951" lon="4.54144">
        <ele>691.20001220703</ele>
        <time>2020-09-18T14:17:06.000Z</time>
      </trkpt>
      <trkpt lat="46.09507" lon="4.54147">
        <ele>691.59997558594</ele>
        <time>2020-09-18T14:17:07.000Z</time>
      </trkpt>
      <trkpt lat="46.09494" lon="4.54165">
        <ele>695.40002441406</ele>
        <time>2020-09-18T14:17:14.000Z</time>
      </trkpt>
      <trkpt lat="46.09481" lon="4.5418">
        <ele>698.59997558594</ele>
        <time>2020-09-18T14:17:20.000Z</time>
      </trkpt>
      <trkpt lat="46.09477" lon="4.54185">
        <ele>699.59997558594</ele>
        <time>2020-09-18T14:17:22.000Z</time>
      </trkpt>
      <trkpt lat="46.09464" lon="4.54201">
        <ele>701</ele>
        <time>2020-09-18T14:17:29.000Z</time>
      </trkpt>
      <trkpt lat="46.09462" lon="4.54203">
        <ele>701.20001220703</ele>
        <time>2020-09-18T14:17:30.000Z</time>
      </trkpt>
      <trkpt lat="46.09449" lon="4.54214">
        <ele>702</ele>
        <time>2020-09-18T14:17:36.000Z</time>
      </trkpt>
      <trkpt lat="46.09435" lon="4.54224">
        <ele>702.59997558594</ele>
        <time>2020-09-18T14:17:42.000Z</time>
      </trkpt>
      <trkpt lat="46.09426" lon="4.54231">
        <ele>703.20001220703</ele>
        <time>2020-09-18T14:17:46.000Z</time>
      </trkpt>
      <trkpt lat="46.09419" lon="4.54235">
        <ele>704.20001220703</ele>
        <time>2020-09-18T14:17:49.000Z</time>
      </trkpt>
      <trkpt lat="46.09407" lon="4.54244">
        <ele>706.59997558594</ele>
        <time>2020-09-18T14:17:54.000Z</time>
      </trkpt>
      <trkpt lat="46.09386" lon="4.54259">
        <ele>710.59997558594</ele>
        <time>2020-09-18T14:18:03.000Z</time>
      </trkpt>
      <trkpt lat="46.09365" lon="4.54274">
        <ele>713</ele>
        <time>2020-09-18T14:18:12.000Z</time>
      </trkpt>
      <trkpt lat="46.09351" lon="4.54284">
        <ele>714.40002441406</ele>
        <time>2020-09-18T14:18:18.000Z</time>
      </trkpt>
      <trkpt lat="46.09349" lon="4.54285">
        <ele>714.40002441406</ele>
        <time>2020-09-18T14:18:19.000Z</time>
      </trkpt>
      <trkpt lat="46.09329" lon="4.54294">
        <ele>714.59997558594</ele>
        <time>2020-09-18T14:18:27.000Z</time>
      </trkpt>
      <trkpt lat="46.09315" lon="4.54301">
        <ele>715</ele>
        <time>2020-09-18T14:18:33.000Z</time>
      </trkpt>
      <trkpt lat="46.093" lon="4.54308">
        <ele>715.79998779297</ele>
        <time>2020-09-18T14:18:39.000Z</time>
      </trkpt>
      <trkpt lat="46.09284" lon="4.54312">
        <ele>716.79998779297</ele>
        <time>2020-09-18T14:18:45.000Z</time>
      </trkpt>
      <trkpt lat="46.09281" lon="4.54313">
        <ele>716.79998779297</ele>
        <time>2020-09-18T14:18:46.000Z</time>
      </trkpt>
      <trkpt lat="46.0927" lon="4.54316">
        <ele>717.40002441406</ele>
        <time>2020-09-18T14:18:50.000Z</time>
      </trkpt>
      <trkpt lat="46.09261" lon="4.54317">
        <ele>717.79998779297</ele>
        <time>2020-09-18T14:18:53.000Z</time>
      </trkpt>
      <trkpt lat="46.09249" lon="4.54316">
        <ele>717.79998779297</ele>
        <time>2020-09-18T14:18:58.000Z</time>
      </trkpt>
      <trkpt lat="46.09246" lon="4.54316">
        <ele>717.79998779297</ele>
        <time>2020-09-18T14:18:59.000Z</time>
      </trkpt>
      <trkpt lat="46.09239" lon="4.54316">
        <ele>718</ele>
        <time>2020-09-18T14:19:02.000Z</time>
      </trkpt>
      <trkpt lat="46.09235" lon="4.54315">
        <ele>717.79998779297</ele>
        <time>2020-09-18T14:19:04.000Z</time>
      </trkpt>
      <trkpt lat="46.09227" lon="4.54314">
        <ele>717.79998779297</ele>
        <time>2020-09-18T14:19:07.000Z</time>
      </trkpt>
      <trkpt lat="46.09223" lon="4.54313">
        <ele>717.79998779297</ele>
        <time>2020-09-18T14:19:09.000Z</time>
      </trkpt>
      <trkpt lat="46.09221" lon="4.54313">
        <ele>718</ele>
        <time>2020-09-18T14:19:10.000Z</time>
      </trkpt>
      <trkpt lat="46.09216" lon="4.54311">
        <ele>718.20001220703</ele>
        <time>2020-09-18T14:19:12.000Z</time>
      </trkpt>
      <trkpt lat="46.09211" lon="4.54309">
        <ele>718</ele>
        <time>2020-09-18T14:19:14.000Z</time>
      </trkpt>
      <trkpt lat="46.09207" lon="4.54307">
        <ele>717.79998779297</ele>
        <time>2020-09-18T14:19:16.000Z</time>
      </trkpt>
      <trkpt lat="46.09204" lon="4.54305">
        <ele>717.79998779297</ele>
        <time>2020-09-18T14:19:17.000Z</time>
      </trkpt>
      <trkpt lat="46.09194" lon="4.54301">
        <ele>717.79998779297</ele>
        <time>2020-09-18T14:19:21.000Z</time>
      </trkpt>
      <trkpt lat="46.09188" lon="4.543">
        <ele>718</ele>
        <time>2020-09-18T14:19:23.000Z</time>
      </trkpt>
      <trkpt lat="46.09185" lon="4.54299">
        <ele>717.79998779297</ele>
        <time>2020-09-18T14:19:24.000Z</time>
      </trkpt>
      <trkpt lat="46.09177" lon="4.54294">
        <ele>717.40002441406</ele>
        <time>2020-09-18T14:19:27.000Z</time>
      </trkpt>
      <trkpt lat="46.09171" lon="4.54292">
        <ele>717.40002441406</ele>
        <time>2020-09-18T14:19:29.000Z</time>
      </trkpt>
      <trkpt lat="46.09166" lon="4.54289">
        <ele>717.20001220703</ele>
        <time>2020-09-18T14:19:31.000Z</time>
      </trkpt>
      <trkpt lat="46.09158" lon="4.54285">
        <ele>717</ele>
        <time>2020-09-18T14:19:34.000Z</time>
      </trkpt>
      <trkpt lat="46.09152" lon="4.54283">
        <ele>717</ele>
        <time>2020-09-18T14:19:36.000Z</time>
      </trkpt>
      <trkpt lat="46.09149" lon="4.54281">
        <ele>717</ele>
        <time>2020-09-18T14:19:37.000Z</time>
      </trkpt>
      <trkpt lat="46.09141" lon="4.54277">
        <ele>717.20001220703</ele>
        <time>2020-09-18T14:19:40.000Z</time>
      </trkpt>
      <trkpt lat="46.09136" lon="4.54275">
        <ele>718</ele>
        <time>2020-09-18T14:19:42.000Z</time>
      </trkpt>
      <trkpt lat="46.09133" lon="4.54274">
        <ele>718.40002441406</ele>
        <time>2020-09-18T14:19:43.000Z</time>
      </trkpt>
      <trkpt lat="46.09125" lon="4.54272">
        <ele>719.20001220703</ele>
        <time>2020-09-18T14:19:46.000Z</time>
      </trkpt>
      <trkpt lat="46.09118" lon="4.54271">
        <ele>719.79998779297</ele>
        <time>2020-09-18T14:19:48.000Z</time>
      </trkpt>
      <trkpt lat="46.09097" lon="4.54271">
        <ele>722.20001220703</ele>
        <time>2020-09-18T14:19:55.000Z</time>
      </trkpt>
      <trkpt lat="46.09092" lon="4.54273">
        <ele>722.79998779297</ele>
        <time>2020-09-18T14:19:57.000Z</time>
      </trkpt>
      <trkpt lat="46.09079" lon="4.54279">
        <ele>724.59997558594</ele>
        <time>2020-09-18T14:20:03.000Z</time>
      </trkpt>
      <trkpt lat="46.09063" lon="4.5429">
        <ele>727.59997558594</ele>
        <time>2020-09-18T14:20:10.000Z</time>
      </trkpt>
      <trkpt lat="46.09046" lon="4.54311">
        <ele>728.40002441406</ele>
        <time>2020-09-18T14:20:18.000Z</time>
      </trkpt>
      <trkpt lat="46.09041" lon="4.54335">
        <ele>729.79998779297</ele>
        <time>2020-09-18T14:20:23.000Z</time>
      </trkpt>
      <trkpt lat="46.09044" lon="4.54358">
        <ele>730.40002441406</ele>
        <time>2020-09-18T14:20:28.000Z</time>
      </trkpt>
      <trkpt lat="46.09053" lon="4.54383">
        <ele>732.20001220703</ele>
        <time>2020-09-18T14:20:33.000Z</time>
      </trkpt>
      <trkpt lat="46.09065" lon="4.54411">
        <ele>735.79998779297</ele>
        <time>2020-09-18T14:20:39.000Z</time>
      </trkpt>
      <trkpt lat="46.09066" lon="4.54416">
        <ele>736.40002441406</ele>
        <time>2020-09-18T14:20:40.000Z</time>
      </trkpt>
      <trkpt lat="46.09069" lon="4.54459">
        <ele>740.40002441406</ele>
        <time>2020-09-18T14:20:47.000Z</time>
      </trkpt>
      <trkpt lat="46.09069" lon="4.54471">
        <ele>741.20001220703</ele>
        <time>2020-09-18T14:20:49.000Z</time>
      </trkpt>
      <trkpt lat="46.09069" lon="4.545">
        <ele>743</ele>
        <time>2020-09-18T14:20:54.000Z</time>
      </trkpt>
      <trkpt lat="46.09067" lon="4.54539">
        <ele>744.79998779297</ele>
        <time>2020-09-18T14:21:01.000Z</time>
      </trkpt>
      <trkpt lat="46.09061" lon="4.5458">
        <ele>746</ele>
        <time>2020-09-18T14:21:08.000Z</time>
      </trkpt>
      <trkpt lat="46.09055" lon="4.54597">
        <ele>745.20001220703</ele>
        <time>2020-09-18T14:21:11.000Z</time>
      </trkpt>
      <trkpt lat="46.09046" lon="4.54612">
        <ele>743.59997558594</ele>
        <time>2020-09-18T14:21:14.000Z</time>
      </trkpt>
      <trkpt lat="46.09017" lon="4.54648">
        <ele>736.59997558594</ele>
        <time>2020-09-18T14:21:23.000Z</time>
      </trkpt>
      <trkpt lat="46.09011" lon="4.54655">
        <ele>735.40002441406</ele>
        <time>2020-09-18T14:21:25.000Z</time>
      </trkpt>
      <trkpt lat="46.09001" lon="4.54666">
        <ele>734.79998779297</ele>
        <time>2020-09-18T14:21:29.000Z</time>
      </trkpt>
      <trkpt lat="46.08981" lon="4.54687">
        <ele>733.20001220703</ele>
        <time>2020-09-18T14:21:36.000Z</time>
      </trkpt>
      <trkpt lat="46.08969" lon="4.54699">
        <ele>732.59997558594</ele>
        <time>2020-09-18T14:21:40.000Z</time>
      </trkpt>
      <trkpt lat="46.08959" lon="4.54707">
        <ele>732.40002441406</ele>
        <time>2020-09-18T14:21:43.000Z</time>
      </trkpt>
      <trkpt lat="46.08943" lon="4.54721">
        <ele>732</ele>
        <time>2020-09-18T14:21:47.000Z</time>
      </trkpt>
      <trkpt lat="46.08936" lon="4.54727">
        <ele>731.79998779297</ele>
        <time>2020-09-18T14:21:49.000Z</time>
      </trkpt>
      <trkpt lat="46.0893" lon="4.54731">
        <ele>731.40002441406</ele>
        <time>2020-09-18T14:21:51.000Z</time>
      </trkpt>
      <trkpt lat="46.08921" lon="4.54736">
        <ele>731.40002441406</ele>
        <time>2020-09-18T14:21:54.000Z</time>
      </trkpt>
      <trkpt lat="46.08901" lon="4.54747">
        <ele>732.20001220703</ele>
        <time>2020-09-18T14:21:59.000Z</time>
      </trkpt>
      <trkpt lat="46.08889" lon="4.54752">
        <ele>732.59997558594</ele>
        <time>2020-09-18T14:22:02.000Z</time>
      </trkpt>
      <trkpt lat="46.0888" lon="4.54756">
        <ele>732.40002441406</ele>
        <time>2020-09-18T14:22:04.000Z</time>
      </trkpt>
      <trkpt lat="46.08868" lon="4.5476">
        <ele>732.20001220703</ele>
        <time>2020-09-18T14:22:07.000Z</time>
      </trkpt>
      <trkpt lat="46.08852" lon="4.54765">
        <ele>731.59997558594</ele>
        <time>2020-09-18T14:22:11.000Z</time>
      </trkpt>
      <trkpt lat="46.08825" lon="4.54774">
        <ele>730.40002441406</ele>
        <time>2020-09-18T14:22:17.000Z</time>
      </trkpt>
      <trkpt lat="46.08812" lon="4.54778">
        <ele>730</ele>
        <time>2020-09-18T14:22:20.000Z</time>
      </trkpt>
      <trkpt lat="46.08801" lon="4.54783">
        <ele>729.59997558594</ele>
        <time>2020-09-18T14:22:23.000Z</time>
      </trkpt>
      <trkpt lat="46.08776" lon="4.54793">
        <ele>729.20001220703</ele>
        <time>2020-09-18T14:22:30.000Z</time>
      </trkpt>
      <trkpt lat="46.08752" lon="4.54809">
        <ele>730</ele>
        <time>2020-09-18T14:22:36.000Z</time>
      </trkpt>
      <trkpt lat="46.08739" lon="4.54819">
        <ele>731</ele>
        <time>2020-09-18T14:22:39.000Z</time>
      </trkpt>
      <trkpt lat="46.08735" lon="4.54823">
        <ele>731.40002441406</ele>
        <time>2020-09-18T14:22:40.000Z</time>
      </trkpt>
      <trkpt lat="46.08724" lon="4.54837">
        <ele>733.59997558594</ele>
        <time>2020-09-18T14:22:43.000Z</time>
      </trkpt>
      <trkpt lat="46.08702" lon="4.54865">
        <ele>736.79998779297</ele>
        <time>2020-09-18T14:22:49.000Z</time>
      </trkpt>
      <trkpt lat="46.08685" lon="4.54877">
        <ele>736.40002441406</ele>
        <time>2020-09-18T14:22:53.000Z</time>
      </trkpt>
      <trkpt lat="46.08677" lon="4.54882">
        <ele>736</ele>
        <time>2020-09-18T14:22:55.000Z</time>
      </trkpt>
      <trkpt lat="46.0865" lon="4.54888">
        <ele>732.59997558594</ele>
        <time>2020-09-18T14:23:01.000Z</time>
      </trkpt>
      <trkpt lat="46.0864" lon="4.54888">
        <ele>731.59997558594</ele>
        <time>2020-09-18T14:23:03.000Z</time>
      </trkpt>
      <trkpt lat="46.08625" lon="4.54884">
        <ele>732</ele>
        <time>2020-09-18T14:23:06.000Z</time>
      </trkpt>
      <trkpt lat="46.08619" lon="4.54882">
        <ele>732.20001220703</ele>
        <time>2020-09-18T14:23:07.000Z</time>
      </trkpt>
      <trkpt lat="46.08601" lon="4.54872">
        <ele>731.79998779297</ele>
        <time>2020-09-18T14:23:11.000Z</time>
      </trkpt>
      <trkpt lat="46.08597" lon="4.54869">
        <ele>731.59997558594</ele>
        <time>2020-09-18T14:23:12.000Z</time>
      </trkpt>
      <trkpt lat="46.0858" lon="4.54851">
        <ele>730.20001220703</ele>
        <time>2020-09-18T14:23:16.000Z</time>
      </trkpt>
      <trkpt lat="46.08577" lon="4.54846">
        <ele>729.59997558594</ele>
        <time>2020-09-18T14:23:17.000Z</time>
      </trkpt>
      <trkpt lat="46.08574" lon="4.5484">
        <ele>729.20001220703</ele>
        <time>2020-09-18T14:23:18.000Z</time>
      </trkpt>
      <trkpt lat="46.0857" lon="4.54835">
        <ele>728.59997558594</ele>
        <time>2020-09-18T14:23:19.000Z</time>
      </trkpt>
      <trkpt lat="46.08564" lon="4.54825">
        <ele>727.59997558594</ele>
        <time>2020-09-18T14:23:21.000Z</time>
      </trkpt>
      <trkpt lat="46.0856" lon="4.5482">
        <ele>727</ele>
        <time>2020-09-18T14:23:22.000Z</time>
      </trkpt>
      <trkpt lat="46.08547" lon="4.548">
        <ele>728</ele>
        <time>2020-09-18T14:23:26.000Z</time>
      </trkpt>
      <trkpt lat="46.0854" lon="4.5479">
        <ele>728.59997558594</ele>
        <time>2020-09-18T14:23:28.000Z</time>
      </trkpt>
      <trkpt lat="46.08522" lon="4.54759">
        <ele>725.40002441406</ele>
        <time>2020-09-18T14:23:34.000Z</time>
      </trkpt>
      <trkpt lat="46.08503" lon="4.54739">
        <ele>724.20001220703</ele>
        <time>2020-09-18T14:23:39.000Z</time>
      </trkpt>
      <trkpt lat="46.08499" lon="4.54735">
        <ele>724.20001220703</ele>
        <time>2020-09-18T14:23:40.000Z</time>
      </trkpt>
      <trkpt lat="46.08488" lon="4.54723">
        <ele>723.59997558594</ele>
        <time>2020-09-18T14:23:43.000Z</time>
      </trkpt>
      <trkpt lat="46.08472" lon="4.54711">
        <ele>724.20001220703</ele>
        <time>2020-09-18T14:23:47.000Z</time>
      </trkpt>
      <trkpt lat="46.08453" lon="4.54701">
        <ele>725.20001220703</ele>
        <time>2020-09-18T14:23:52.000Z</time>
      </trkpt>
      <trkpt lat="46.08444" lon="4.54697">
        <ele>726.20001220703</ele>
        <time>2020-09-18T14:23:54.000Z</time>
      </trkpt>
      <trkpt lat="46.08435" lon="4.54692">
        <ele>727</ele>
        <time>2020-09-18T14:23:56.000Z</time>
      </trkpt>
      <trkpt lat="46.08426" lon="4.54685">
        <ele>727.40002441406</ele>
        <time>2020-09-18T14:23:58.000Z</time>
      </trkpt>
      <trkpt lat="46.08422" lon="4.54683">
        <ele>727.79998779297</ele>
        <time>2020-09-18T14:23:59.000Z</time>
      </trkpt>
      <trkpt lat="46.08396" lon="4.54679">
        <ele>732.40002441406</ele>
        <time>2020-09-18T14:24:03.000Z</time>
      </trkpt>
      <trkpt lat="46.08386" lon="4.54684">
        <ele>734</ele>
        <time>2020-09-18T14:24:05.000Z</time>
      </trkpt>
      <trkpt lat="46.08375" lon="4.54693">
        <ele>734.40002441406</ele>
        <time>2020-09-18T14:24:07.000Z</time>
      </trkpt>
      <trkpt lat="46.08369" lon="4.54698">
        <ele>734.20001220703</ele>
        <time>2020-09-18T14:24:08.000Z</time>
      </trkpt>
      <trkpt lat="46.08342" lon="4.54731">
        <ele>736</ele>
        <time>2020-09-18T14:24:13.000Z</time>
      </trkpt>
      <trkpt lat="46.08312" lon="4.54755">
        <ele>733.40002441406</ele>
        <time>2020-09-18T14:24:18.000Z</time>
      </trkpt>
      <trkpt lat="46.08299" lon="4.54762">
        <ele>732</ele>
        <time>2020-09-18T14:24:20.000Z</time>
      </trkpt>
      <trkpt lat="46.08267" lon="4.54774">
        <ele>729.40002441406</ele>
        <time>2020-09-18T14:24:25.000Z</time>
      </trkpt>
      <trkpt lat="46.08232" lon="4.54788">
        <ele>727.20001220703</ele>
        <time>2020-09-18T14:24:31.000Z</time>
      </trkpt>
      <trkpt lat="46.08226" lon="4.54789">
        <ele>726.79998779297</ele>
        <time>2020-09-18T14:24:32.000Z</time>
      </trkpt>
      <trkpt lat="46.08199" lon="4.54797">
        <ele>727</ele>
        <time>2020-09-18T14:24:36.000Z</time>
      </trkpt>
      <trkpt lat="46.08191" lon="4.54799">
        <ele>727</ele>
        <time>2020-09-18T14:24:37.000Z</time>
      </trkpt>
      <trkpt lat="46.08161" lon="4.54806">
        <ele>726.59997558594</ele>
        <time>2020-09-18T14:24:41.000Z</time>
      </trkpt>
      <trkpt lat="46.08154" lon="4.54808">
        <ele>726</ele>
        <time>2020-09-18T14:24:42.000Z</time>
      </trkpt>
      <trkpt lat="46.08114" lon="4.54815">
        <ele>724.59997558594</ele>
        <time>2020-09-18T14:24:48.000Z</time>
      </trkpt>
      <trkpt lat="46.08067" lon="4.54834">
        <ele>724.20001220703</ele>
        <time>2020-09-18T14:24:56.000Z</time>
      </trkpt>
      <trkpt lat="46.0805" lon="4.54846">
        <ele>725.20001220703</ele>
        <time>2020-09-18T14:24:59.000Z</time>
      </trkpt>
      <trkpt lat="46.08034" lon="4.54859">
        <ele>725.79998779297</ele>
        <time>2020-09-18T14:25:02.000Z</time>
      </trkpt>
      <trkpt lat="46.0802" lon="4.54871">
        <ele>725.59997558594</ele>
        <time>2020-09-18T14:25:05.000Z</time>
      </trkpt>
      <trkpt lat="46.08016" lon="4.54873">
        <ele>725.40002441406</ele>
        <time>2020-09-18T14:25:06.000Z</time>
      </trkpt>
      <trkpt lat="46.08012" lon="4.54875">
        <ele>725.20001220703</ele>
        <time>2020-09-18T14:25:07.000Z</time>
      </trkpt>
      <trkpt lat="46.08005" lon="4.54876">
        <ele>725</ele>
        <time>2020-09-18T14:25:10.000Z</time>
      </trkpt>
      <trkpt lat="46.08003" lon="4.54876">
        <ele>725</ele>
        <time>2020-09-18T14:25:11.000Z</time>
      </trkpt>
      <trkpt lat="46.07998" lon="4.54882">
        <ele>724.79998779297</ele>
        <time>2020-09-18T14:25:14.000Z</time>
      </trkpt>
      <trkpt lat="46.07998" lon="4.54884">
        <ele>724.79998779297</ele>
        <time>2020-09-18T14:25:15.000Z</time>
      </trkpt>
      <trkpt lat="46.08001" lon="4.5489">
        <ele>724.79998779297</ele>
        <time>2020-09-18T14:31:25.000Z</time>
      </trkpt>
    </trkseg>
  </trk>
</gpx>